<?xml version="1.0" encoding="UTF-8" standalone="no" ?>
<gpx xmlns="http://www.topografix.com/GPX/1/1" xmlns:xsi="http://www.w3.org/2001/XMLSchema-instance" xsi:schemaLocation="http://www.topografix.com/GPX/1/1 http://www.topografix.com/GPX/1/1/gpx.xsd" version="1.1" creator="VisuGPX - https://www.visugpx.com">
  <metadata>
    <name>Vignacourt </name>
  </metadata>
  <trk>
    <name><![CDATA[Tracé actuel: 06 JAN 2022 17:46]]></name>
    <trkseg>
      <trkpt lat="50.21416" lon="2.33715">
        <ele>143.85</ele>
        <time>2022-01-06T16:46:18Z</time>
      </trkpt>
      <trkpt lat="50.21416" lon="2.33715">
        <ele>142.89</ele>
        <time>2022-01-06T16:46:32Z</time>
      </trkpt>
    </trkseg>
  </trk>
  <trk>
    <name><![CDATA[Vignacourtl: 12 JAN 2022 14:01]]></name>
    <trkseg>
      <trkpt lat="50.01199" lon="2.19591">
        <ele>136.16</ele>
        <time>2022-01-12T13:01:11Z</time>
      </trkpt>
      <trkpt lat="50.01199" lon="2.196">
        <ele>125.11</ele>
        <time>2022-01-12T13:01:29Z</time>
      </trkpt>
      <trkpt lat="50.01197" lon="2.19605">
        <ele>128.95</ele>
        <time>2022-01-12T13:01:49Z</time>
      </trkpt>
      <trkpt lat="50.01195" lon="2.19607">
        <ele>128.95</ele>
        <time>2022-01-12T13:02:07Z</time>
      </trkpt>
      <trkpt lat="50.01194" lon="2.19608">
        <ele>123.67</ele>
        <time>2022-01-12T13:02:30Z</time>
      </trkpt>
      <trkpt lat="50.01195" lon="2.1961">
        <ele>125.59</ele>
        <time>2022-01-12T13:02:56Z</time>
      </trkpt>
      <trkpt lat="50.01196" lon="2.19607">
        <ele>126.07</ele>
        <time>2022-01-12T13:03:17Z</time>
      </trkpt>
      <trkpt lat="50.01196" lon="2.19606">
        <ele>126.55</ele>
        <time>2022-01-12T13:03:38Z</time>
      </trkpt>
      <trkpt lat="50.01196" lon="2.19603">
        <ele>126.55</ele>
        <time>2022-01-12T13:04:03Z</time>
      </trkpt>
      <trkpt lat="50.01196" lon="2.19604">
        <ele>126.07</ele>
        <time>2022-01-12T13:04:15Z</time>
      </trkpt>
      <trkpt lat="50.01196" lon="2.19604">
        <ele>125.59</ele>
        <time>2022-01-12T13:04:25Z</time>
      </trkpt>
      <trkpt lat="50.01196" lon="2.19605">
        <ele>125.59</ele>
        <time>2022-01-12T13:04:46Z</time>
      </trkpt>
      <trkpt lat="50.01197" lon="2.1961">
        <ele>126.07</ele>
        <time>2022-01-12T13:05:07Z</time>
      </trkpt>
      <trkpt lat="50.01197" lon="2.19609">
        <ele>123.67</ele>
        <time>2022-01-12T13:05:29Z</time>
      </trkpt>
      <trkpt lat="50.01196" lon="2.19607">
        <ele>123.67</ele>
        <time>2022-01-12T13:05:55Z</time>
      </trkpt>
      <trkpt lat="50.01197" lon="2.19605">
        <ele>124.63</ele>
        <time>2022-01-12T13:06:22Z</time>
      </trkpt>
      <trkpt lat="50.01197" lon="2.19605">
        <ele>124.63</ele>
        <time>2022-01-12T13:06:35Z</time>
      </trkpt>
      <trkpt lat="50.01195" lon="2.19604">
        <ele>125.11</ele>
        <time>2022-01-12T13:06:46Z</time>
      </trkpt>
      <trkpt lat="50.01188" lon="2.19592">
        <ele>125.59</ele>
        <time>2022-01-12T13:06:54Z</time>
      </trkpt>
      <trkpt lat="50.01185" lon="2.19572">
        <ele>126.07</ele>
        <time>2022-01-12T13:07:05Z</time>
      </trkpt>
      <trkpt lat="50.01186" lon="2.19553">
        <ele>124.63</ele>
        <time>2022-01-12T13:07:16Z</time>
      </trkpt>
      <trkpt lat="50.01186" lon="2.1955">
        <ele>124.63</ele>
        <time>2022-01-12T13:07:17Z</time>
      </trkpt>
      <trkpt lat="50.01188" lon="2.19539">
        <ele>122.22</ele>
        <time>2022-01-12T13:07:22Z</time>
      </trkpt>
      <trkpt lat="50.01191" lon="2.19534">
        <ele>120.78</ele>
        <time>2022-01-12T13:07:26Z</time>
      </trkpt>
      <trkpt lat="50.0121" lon="2.19523">
        <ele>118.86</ele>
        <time>2022-01-12T13:07:42Z</time>
      </trkpt>
      <trkpt lat="50.0123" lon="2.19515">
        <ele>121.26</ele>
        <time>2022-01-12T13:07:57Z</time>
      </trkpt>
      <trkpt lat="50.01245" lon="2.19514">
        <ele>121.74</ele>
        <time>2022-01-12T13:08:08Z</time>
      </trkpt>
      <trkpt lat="50.01252" lon="2.19523">
        <ele>121.26</ele>
        <time>2022-01-12T13:08:16Z</time>
      </trkpt>
      <trkpt lat="50.01265" lon="2.19507">
        <ele>118.38</ele>
        <time>2022-01-12T13:08:30Z</time>
      </trkpt>
      <trkpt lat="50.01276" lon="2.19487">
        <ele>115.98</ele>
        <time>2022-01-12T13:08:44Z</time>
      </trkpt>
      <trkpt lat="50.01289" lon="2.19466">
        <ele>115.5</ele>
        <time>2022-01-12T13:08:59Z</time>
      </trkpt>
      <trkpt lat="50.01303" lon="2.19465">
        <ele>115.5</ele>
        <time>2022-01-12T13:09:10Z</time>
      </trkpt>
      <trkpt lat="50.0132" lon="2.19486">
        <ele>116.94</ele>
        <time>2022-01-12T13:09:25Z</time>
      </trkpt>
      <trkpt lat="50.01326" lon="2.19495">
        <ele>117.42</ele>
        <time>2022-01-12T13:09:32Z</time>
      </trkpt>
      <trkpt lat="50.01331" lon="2.19495">
        <ele>117.42</ele>
        <time>2022-01-12T13:09:36Z</time>
      </trkpt>
      <trkpt lat="50.01345" lon="2.19475">
        <ele>115.98</ele>
        <time>2022-01-12T13:09:52Z</time>
      </trkpt>
      <trkpt lat="50.01358" lon="2.19458">
        <ele>115.98</ele>
        <time>2022-01-12T13:10:05Z</time>
      </trkpt>
      <trkpt lat="50.01363" lon="2.19451">
        <ele>115.01</ele>
        <time>2022-01-12T13:10:11Z</time>
      </trkpt>
      <trkpt lat="50.01377" lon="2.19435">
        <ele>114.53</ele>
        <time>2022-01-12T13:10:26Z</time>
      </trkpt>
      <trkpt lat="50.01394" lon="2.19418">
        <ele>115.5</ele>
        <time>2022-01-12T13:10:42Z</time>
      </trkpt>
      <trkpt lat="50.01396" lon="2.19415">
        <ele>115.5</ele>
        <time>2022-01-12T13:10:45Z</time>
      </trkpt>
      <trkpt lat="50.01397" lon="2.19412">
        <ele>115.01</ele>
        <time>2022-01-12T13:10:47Z</time>
      </trkpt>
      <trkpt lat="50.01387" lon="2.19383">
        <ele>114.05</ele>
        <time>2022-01-12T13:11:03Z</time>
      </trkpt>
      <trkpt lat="50.01378" lon="2.19358">
        <ele>113.57</ele>
        <time>2022-01-12T13:11:17Z</time>
      </trkpt>
      <trkpt lat="50.0137" lon="2.19334">
        <ele>114.53</ele>
        <time>2022-01-12T13:11:31Z</time>
      </trkpt>
      <trkpt lat="50.01362" lon="2.19309">
        <ele>114.53</ele>
        <time>2022-01-12T13:11:45Z</time>
      </trkpt>
      <trkpt lat="50.01363" lon="2.19283">
        <ele>115.01</ele>
        <time>2022-01-12T13:11:58Z</time>
      </trkpt>
      <trkpt lat="50.01368" lon="2.19265">
        <ele>114.53</ele>
        <time>2022-01-12T13:12:08Z</time>
      </trkpt>
      <trkpt lat="50.01373" lon="2.19261">
        <ele>114.05</ele>
        <time>2022-01-12T13:12:13Z</time>
      </trkpt>
      <trkpt lat="50.01391" lon="2.1925">
        <ele>114.53</ele>
        <time>2022-01-12T13:12:29Z</time>
      </trkpt>
      <trkpt lat="50.01407" lon="2.19241">
        <ele>115.5</ele>
        <time>2022-01-12T13:12:43Z</time>
      </trkpt>
      <trkpt lat="50.0141" lon="2.19234">
        <ele>115.98</ele>
        <time>2022-01-12T13:12:47Z</time>
      </trkpt>
      <trkpt lat="50.01414" lon="2.19202">
        <ele>113.57</ele>
        <time>2022-01-12T13:13:03Z</time>
      </trkpt>
      <trkpt lat="50.01424" lon="2.19174">
        <ele>115.01</ele>
        <time>2022-01-12T13:13:19Z</time>
      </trkpt>
      <trkpt lat="50.01433" lon="2.19155">
        <ele>114.53</ele>
        <time>2022-01-12T13:13:32Z</time>
      </trkpt>
      <trkpt lat="50.01439" lon="2.19128">
        <ele>114.05</ele>
        <time>2022-01-12T13:13:46Z</time>
      </trkpt>
      <trkpt lat="50.01441" lon="2.19099">
        <ele>115.5</ele>
        <time>2022-01-12T13:14:00Z</time>
      </trkpt>
      <trkpt lat="50.01444" lon="2.19067">
        <ele>116.46</ele>
        <time>2022-01-12T13:14:15Z</time>
      </trkpt>
      <trkpt lat="50.01448" lon="2.19035">
        <ele>114.05</ele>
        <time>2022-01-12T13:14:31Z</time>
      </trkpt>
      <trkpt lat="50.01455" lon="2.1901">
        <ele>114.05</ele>
        <time>2022-01-12T13:14:44Z</time>
      </trkpt>
      <trkpt lat="50.01463" lon="2.18985">
        <ele>114.53</ele>
        <time>2022-01-12T13:14:57Z</time>
      </trkpt>
      <trkpt lat="50.01475" lon="2.18964">
        <ele>115.5</ele>
        <time>2022-01-12T13:15:11Z</time>
      </trkpt>
      <trkpt lat="50.01489" lon="2.18948">
        <ele>117.9</ele>
        <time>2022-01-12T13:15:24Z</time>
      </trkpt>
      <trkpt lat="50.01501" lon="2.18929">
        <ele>118.38</ele>
        <time>2022-01-12T13:15:38Z</time>
      </trkpt>
      <trkpt lat="50.01505" lon="2.18922">
        <ele>118.86</ele>
        <time>2022-01-12T13:15:44Z</time>
      </trkpt>
      <trkpt lat="50.01504" lon="2.18914">
        <ele>117.9</ele>
        <time>2022-01-12T13:15:48Z</time>
      </trkpt>
      <trkpt lat="50.01505" lon="2.18884">
        <ele>116.94</ele>
        <time>2022-01-12T13:16:02Z</time>
      </trkpt>
      <trkpt lat="50.01517" lon="2.1886">
        <ele>116.46</ele>
        <time>2022-01-12T13:16:16Z</time>
      </trkpt>
      <trkpt lat="50.01527" lon="2.18838">
        <ele>116.94</ele>
        <time>2022-01-12T13:16:30Z</time>
      </trkpt>
      <trkpt lat="50.01537" lon="2.18816">
        <ele>116.94</ele>
        <time>2022-01-12T13:16:43Z</time>
      </trkpt>
      <trkpt lat="50.01547" lon="2.18796">
        <ele>117.9</ele>
        <time>2022-01-12T13:16:56Z</time>
      </trkpt>
      <trkpt lat="50.01555" lon="2.18774">
        <ele>117.9</ele>
        <time>2022-01-12T13:17:09Z</time>
      </trkpt>
      <trkpt lat="50.01564" lon="2.18749">
        <ele>118.86</ele>
        <time>2022-01-12T13:17:23Z</time>
      </trkpt>
      <trkpt lat="50.01574" lon="2.18725">
        <ele>118.86</ele>
        <time>2022-01-12T13:17:38Z</time>
      </trkpt>
      <trkpt lat="50.01587" lon="2.18696">
        <ele>119.34</ele>
        <time>2022-01-12T13:17:55Z</time>
      </trkpt>
      <trkpt lat="50.01594" lon="2.18675">
        <ele>119.34</ele>
        <time>2022-01-12T13:18:09Z</time>
      </trkpt>
      <trkpt lat="50.01595" lon="2.18666">
        <ele>119.82</ele>
        <time>2022-01-12T13:18:15Z</time>
      </trkpt>
      <trkpt lat="50.01592" lon="2.18658">
        <ele>120.3</ele>
        <time>2022-01-12T13:18:20Z</time>
      </trkpt>
      <trkpt lat="50.01581" lon="2.18637">
        <ele>121.26</ele>
        <time>2022-01-12T13:18:35Z</time>
      </trkpt>
      <trkpt lat="50.0158" lon="2.18609">
        <ele>121.74</ele>
        <time>2022-01-12T13:18:48Z</time>
      </trkpt>
      <trkpt lat="50.01586" lon="2.18585">
        <ele>121.26</ele>
        <time>2022-01-12T13:19:00Z</time>
      </trkpt>
      <trkpt lat="50.01593" lon="2.18557">
        <ele>120.3</ele>
        <time>2022-01-12T13:19:14Z</time>
      </trkpt>
      <trkpt lat="50.01599" lon="2.18533">
        <ele>119.82</ele>
        <time>2022-01-12T13:19:27Z</time>
      </trkpt>
      <trkpt lat="50.01607" lon="2.18513">
        <ele>118.86</ele>
        <time>2022-01-12T13:19:39Z</time>
      </trkpt>
      <trkpt lat="50.01619" lon="2.18493">
        <ele>117.9</ele>
        <time>2022-01-12T13:19:52Z</time>
      </trkpt>
      <trkpt lat="50.01635" lon="2.18474">
        <ele>117.9</ele>
        <time>2022-01-12T13:20:08Z</time>
      </trkpt>
      <trkpt lat="50.01646" lon="2.18461">
        <ele>116.46</ele>
        <time>2022-01-12T13:20:20Z</time>
      </trkpt>
      <trkpt lat="50.01661" lon="2.18441">
        <ele>116.94</ele>
        <time>2022-01-12T13:20:35Z</time>
      </trkpt>
      <trkpt lat="50.01674" lon="2.18425">
        <ele>115.5</ele>
        <time>2022-01-12T13:20:47Z</time>
      </trkpt>
      <trkpt lat="50.01684" lon="2.18408">
        <ele>115.01</ele>
        <time>2022-01-12T13:20:59Z</time>
      </trkpt>
      <trkpt lat="50.01692" lon="2.18382">
        <ele>115.01</ele>
        <time>2022-01-12T13:21:11Z</time>
      </trkpt>
      <trkpt lat="50.01697" lon="2.18356">
        <ele>114.05</ele>
        <time>2022-01-12T13:21:24Z</time>
      </trkpt>
      <trkpt lat="50.01705" lon="2.18329">
        <ele>114.53</ele>
        <time>2022-01-12T13:21:38Z</time>
      </trkpt>
      <trkpt lat="50.01715" lon="2.18301">
        <ele>114.05</ele>
        <time>2022-01-12T13:21:53Z</time>
      </trkpt>
      <trkpt lat="50.01721" lon="2.18276">
        <ele>114.53</ele>
        <time>2022-01-12T13:22:06Z</time>
      </trkpt>
      <trkpt lat="50.01725" lon="2.18245">
        <ele>115.5</ele>
        <time>2022-01-12T13:22:20Z</time>
      </trkpt>
      <trkpt lat="50.01739" lon="2.18239">
        <ele>115.5</ele>
        <time>2022-01-12T13:22:31Z</time>
      </trkpt>
      <trkpt lat="50.01756" lon="2.18241">
        <ele>117.42</ele>
        <time>2022-01-12T13:22:45Z</time>
      </trkpt>
      <trkpt lat="50.01772" lon="2.18241">
        <ele>116.94</ele>
        <time>2022-01-12T13:22:57Z</time>
      </trkpt>
      <trkpt lat="50.01776" lon="2.18247">
        <ele>116.46</ele>
        <time>2022-01-12T13:23:02Z</time>
      </trkpt>
      <trkpt lat="50.01781" lon="2.18266">
        <ele>116.46</ele>
        <time>2022-01-12T13:23:14Z</time>
      </trkpt>
      <trkpt lat="50.01783" lon="2.18267">
        <ele>116.46</ele>
        <time>2022-01-12T13:23:16Z</time>
      </trkpt>
      <trkpt lat="50.01798" lon="2.18265">
        <ele>118.86</ele>
        <time>2022-01-12T13:23:28Z</time>
      </trkpt>
      <trkpt lat="50.01819" lon="2.18264">
        <ele>120.3</ele>
        <time>2022-01-12T13:23:44Z</time>
      </trkpt>
      <trkpt lat="50.01838" lon="2.18267">
        <ele>117.9</ele>
        <time>2022-01-12T13:23:57Z</time>
      </trkpt>
      <trkpt lat="50.0186" lon="2.18267">
        <ele>116.46</ele>
        <time>2022-01-12T13:24:13Z</time>
      </trkpt>
      <trkpt lat="50.0188" lon="2.18272">
        <ele>117.9</ele>
        <time>2022-01-12T13:24:29Z</time>
      </trkpt>
      <trkpt lat="50.01881" lon="2.18274">
        <ele>117.9</ele>
        <time>2022-01-12T13:24:31Z</time>
      </trkpt>
      <trkpt lat="50.01879" lon="2.18306">
        <ele>118.86</ele>
        <time>2022-01-12T13:24:46Z</time>
      </trkpt>
      <trkpt lat="50.01877" lon="2.1833">
        <ele>118.86</ele>
        <time>2022-01-12T13:24:58Z</time>
      </trkpt>
      <trkpt lat="50.01873" lon="2.18356">
        <ele>120.3</ele>
        <time>2022-01-12T13:25:11Z</time>
      </trkpt>
      <trkpt lat="50.01871" lon="2.18374">
        <ele>121.74</ele>
        <time>2022-01-12T13:25:20Z</time>
      </trkpt>
      <trkpt lat="50.01867" lon="2.18394">
        <ele>121.26</ele>
        <time>2022-01-12T13:25:32Z</time>
      </trkpt>
      <trkpt lat="50.01865" lon="2.18415">
        <ele>118.38</ele>
        <time>2022-01-12T13:25:44Z</time>
      </trkpt>
      <trkpt lat="50.01861" lon="2.18442">
        <ele>120.78</ele>
        <time>2022-01-12T13:25:56Z</time>
      </trkpt>
      <trkpt lat="50.01856" lon="2.18464">
        <ele>120.3</ele>
        <time>2022-01-12T13:26:07Z</time>
      </trkpt>
      <trkpt lat="50.01852" lon="2.18483">
        <ele>120.78</ele>
        <time>2022-01-12T13:26:17Z</time>
      </trkpt>
      <trkpt lat="50.01843" lon="2.18509">
        <ele>121.26</ele>
        <time>2022-01-12T13:26:30Z</time>
      </trkpt>
      <trkpt lat="50.01834" lon="2.18539">
        <ele>122.71</ele>
        <time>2022-01-12T13:26:44Z</time>
      </trkpt>
      <trkpt lat="50.01826" lon="2.18569">
        <ele>123.67</ele>
        <time>2022-01-12T13:26:59Z</time>
      </trkpt>
      <trkpt lat="50.01817" lon="2.186">
        <ele>122.22</ele>
        <time>2022-01-12T13:27:16Z</time>
      </trkpt>
      <trkpt lat="50.0181" lon="2.18624">
        <ele>119.34</ele>
        <time>2022-01-12T13:27:30Z</time>
      </trkpt>
      <trkpt lat="50.018" lon="2.18649">
        <ele>121.74</ele>
        <time>2022-01-12T13:27:42Z</time>
      </trkpt>
      <trkpt lat="50.01791" lon="2.18678">
        <ele>124.15</ele>
        <time>2022-01-12T13:27:57Z</time>
      </trkpt>
      <trkpt lat="50.01782" lon="2.18704">
        <ele>123.19</ele>
        <time>2022-01-12T13:28:11Z</time>
      </trkpt>
      <trkpt lat="50.01774" lon="2.18732">
        <ele>126.55</ele>
        <time>2022-01-12T13:28:26Z</time>
      </trkpt>
      <trkpt lat="50.01773" lon="2.18738">
        <ele>126.55</ele>
        <time>2022-01-12T13:28:29Z</time>
      </trkpt>
      <trkpt lat="50.01783" lon="2.18753">
        <ele>124.63</ele>
        <time>2022-01-12T13:28:42Z</time>
      </trkpt>
      <trkpt lat="50.01802" lon="2.18762">
        <ele>122.71</ele>
        <time>2022-01-12T13:28:57Z</time>
      </trkpt>
      <trkpt lat="50.01808" lon="2.18768">
        <ele>122.71</ele>
        <time>2022-01-12T13:29:03Z</time>
      </trkpt>
      <trkpt lat="50.01821" lon="2.18778">
        <ele>120.3</ele>
        <time>2022-01-12T13:29:14Z</time>
      </trkpt>
      <trkpt lat="50.01844" lon="2.1879">
        <ele>120.78</ele>
        <time>2022-01-12T13:29:31Z</time>
      </trkpt>
      <trkpt lat="50.01866" lon="2.18804">
        <ele>119.34</ele>
        <time>2022-01-12T13:29:47Z</time>
      </trkpt>
      <trkpt lat="50.01883" lon="2.18815">
        <ele>119.34</ele>
        <time>2022-01-12T13:30:02Z</time>
      </trkpt>
      <trkpt lat="50.01893" lon="2.18799">
        <ele>120.78</ele>
        <time>2022-01-12T13:30:13Z</time>
      </trkpt>
      <trkpt lat="50.01902" lon="2.1877">
        <ele>120.78</ele>
        <time>2022-01-12T13:30:28Z</time>
      </trkpt>
      <trkpt lat="50.01911" lon="2.18744">
        <ele>121.26</ele>
        <time>2022-01-12T13:30:42Z</time>
      </trkpt>
      <trkpt lat="50.01923" lon="2.18712">
        <ele>120.3</ele>
        <time>2022-01-12T13:30:59Z</time>
      </trkpt>
      <trkpt lat="50.01933" lon="2.18685">
        <ele>119.34</ele>
        <time>2022-01-12T13:31:14Z</time>
      </trkpt>
      <trkpt lat="50.01936" lon="2.18678">
        <ele>119.34</ele>
        <time>2022-01-12T13:31:18Z</time>
      </trkpt>
      <trkpt lat="50.01951" lon="2.18658">
        <ele>119.34</ele>
        <time>2022-01-12T13:31:32Z</time>
      </trkpt>
      <trkpt lat="50.01959" lon="2.18646">
        <ele>119.34</ele>
        <time>2022-01-12T13:31:40Z</time>
      </trkpt>
      <trkpt lat="50.01967" lon="2.18643">
        <ele>118.86</ele>
        <time>2022-01-12T13:31:46Z</time>
      </trkpt>
      <trkpt lat="50.01987" lon="2.1864">
        <ele>120.78</ele>
        <time>2022-01-12T13:32:00Z</time>
      </trkpt>
      <trkpt lat="50.02009" lon="2.18636">
        <ele>120.3</ele>
        <time>2022-01-12T13:32:16Z</time>
      </trkpt>
      <trkpt lat="50.02031" lon="2.18624">
        <ele>119.34</ele>
        <time>2022-01-12T13:32:33Z</time>
      </trkpt>
      <trkpt lat="50.0205" lon="2.18601">
        <ele>118.38</ele>
        <time>2022-01-12T13:32:50Z</time>
      </trkpt>
      <trkpt lat="50.02068" lon="2.1857">
        <ele>115.5</ele>
        <time>2022-01-12T13:33:10Z</time>
      </trkpt>
      <trkpt lat="50.02083" lon="2.18543">
        <ele>114.53</ele>
        <time>2022-01-12T13:33:26Z</time>
      </trkpt>
      <trkpt lat="50.02099" lon="2.18513">
        <ele>114.05</ele>
        <time>2022-01-12T13:33:43Z</time>
      </trkpt>
      <trkpt lat="50.02118" lon="2.18484">
        <ele>115.01</ele>
        <time>2022-01-12T13:34:02Z</time>
      </trkpt>
      <trkpt lat="50.02136" lon="2.18477">
        <ele>113.57</ele>
        <time>2022-01-12T13:34:16Z</time>
      </trkpt>
      <trkpt lat="50.02158" lon="2.18475">
        <ele>113.09</ele>
        <time>2022-01-12T13:34:31Z</time>
      </trkpt>
      <trkpt lat="50.02183" lon="2.18474">
        <ele>115.5</ele>
        <time>2022-01-12T13:34:48Z</time>
      </trkpt>
      <trkpt lat="50.02204" lon="2.18475">
        <ele>115.98</ele>
        <time>2022-01-12T13:35:03Z</time>
      </trkpt>
      <trkpt lat="50.02228" lon="2.18474">
        <ele>116.46</ele>
        <time>2022-01-12T13:35:20Z</time>
      </trkpt>
      <trkpt lat="50.02249" lon="2.18476">
        <ele>116.94</ele>
        <time>2022-01-12T13:35:35Z</time>
      </trkpt>
      <trkpt lat="50.02274" lon="2.18477">
        <ele>116.94</ele>
        <time>2022-01-12T13:35:53Z</time>
      </trkpt>
      <trkpt lat="50.02301" lon="2.18478">
        <ele>117.42</ele>
        <time>2022-01-12T13:36:12Z</time>
      </trkpt>
      <trkpt lat="50.02323" lon="2.18478">
        <ele>118.38</ele>
        <time>2022-01-12T13:36:28Z</time>
      </trkpt>
      <trkpt lat="50.02346" lon="2.18479">
        <ele>117.42</ele>
        <time>2022-01-12T13:36:45Z</time>
      </trkpt>
      <trkpt lat="50.02374" lon="2.18481">
        <ele>116.94</ele>
        <time>2022-01-12T13:37:05Z</time>
      </trkpt>
      <trkpt lat="50.02405" lon="2.18482">
        <ele>117.42</ele>
        <time>2022-01-12T13:37:27Z</time>
      </trkpt>
      <trkpt lat="50.02431" lon="2.18485">
        <ele>115.98</ele>
        <time>2022-01-12T13:37:46Z</time>
      </trkpt>
      <trkpt lat="50.02456" lon="2.18486">
        <ele>116.46</ele>
        <time>2022-01-12T13:38:04Z</time>
      </trkpt>
      <trkpt lat="50.02488" lon="2.18488">
        <ele>116.94</ele>
        <time>2022-01-12T13:38:26Z</time>
      </trkpt>
      <trkpt lat="50.02512" lon="2.18487">
        <ele>115.98</ele>
        <time>2022-01-12T13:38:43Z</time>
      </trkpt>
      <trkpt lat="50.02538" lon="2.18482">
        <ele>115.5</ele>
        <time>2022-01-12T13:39:01Z</time>
      </trkpt>
      <trkpt lat="50.02565" lon="2.18475">
        <ele>115.01</ele>
        <time>2022-01-12T13:39:20Z</time>
      </trkpt>
      <trkpt lat="50.02592" lon="2.18461">
        <ele>113.57</ele>
        <time>2022-01-12T13:39:40Z</time>
      </trkpt>
      <trkpt lat="50.02614" lon="2.18444">
        <ele>111.65</ele>
        <time>2022-01-12T13:39:57Z</time>
      </trkpt>
      <trkpt lat="50.02637" lon="2.18423">
        <ele>109.25</ele>
        <time>2022-01-12T13:40:15Z</time>
      </trkpt>
      <trkpt lat="50.0266" lon="2.184">
        <ele>106.84</ele>
        <time>2022-01-12T13:40:34Z</time>
      </trkpt>
      <trkpt lat="50.02681" lon="2.18383">
        <ele>104.44</ele>
        <time>2022-01-12T13:40:50Z</time>
      </trkpt>
      <trkpt lat="50.027" lon="2.18364">
        <ele>103</ele>
        <time>2022-01-12T13:41:06Z</time>
      </trkpt>
      <trkpt lat="50.02719" lon="2.1835">
        <ele>101.56</ele>
        <time>2022-01-12T13:41:20Z</time>
      </trkpt>
      <trkpt lat="50.02734" lon="2.18335">
        <ele>100.11</ele>
        <time>2022-01-12T13:41:33Z</time>
      </trkpt>
      <trkpt lat="50.02754" lon="2.18317">
        <ele>98.67</ele>
        <time>2022-01-12T13:41:48Z</time>
      </trkpt>
      <trkpt lat="50.02778" lon="2.18294">
        <ele>96.27</ele>
        <time>2022-01-12T13:42:07Z</time>
      </trkpt>
      <trkpt lat="50.02801" lon="2.18275">
        <ele>95.31</ele>
        <time>2022-01-12T13:42:24Z</time>
      </trkpt>
      <trkpt lat="50.02822" lon="2.18257">
        <ele>94.35</ele>
        <time>2022-01-12T13:42:41Z</time>
      </trkpt>
      <trkpt lat="50.02849" lon="2.18247">
        <ele>93.39</ele>
        <time>2022-01-12T13:42:59Z</time>
      </trkpt>
      <trkpt lat="50.02875" lon="2.18245">
        <ele>91.46</ele>
        <time>2022-01-12T13:43:17Z</time>
      </trkpt>
      <trkpt lat="50.02898" lon="2.18247">
        <ele>90.02</ele>
        <time>2022-01-12T13:43:33Z</time>
      </trkpt>
      <trkpt lat="50.02921" lon="2.18252">
        <ele>90.5</ele>
        <time>2022-01-12T13:43:49Z</time>
      </trkpt>
      <trkpt lat="50.02949" lon="2.18255">
        <ele>88.58</ele>
        <time>2022-01-12T13:44:09Z</time>
      </trkpt>
      <trkpt lat="50.02976" lon="2.18259">
        <ele>85.69</ele>
        <time>2022-01-12T13:44:27Z</time>
      </trkpt>
      <trkpt lat="50.03005" lon="2.18261">
        <ele>83.77</ele>
        <time>2022-01-12T13:44:47Z</time>
      </trkpt>
      <trkpt lat="50.03027" lon="2.18255">
        <ele>82.33</ele>
        <time>2022-01-12T13:45:03Z</time>
      </trkpt>
      <trkpt lat="50.03049" lon="2.18247">
        <ele>82.33</ele>
        <time>2022-01-12T13:45:18Z</time>
      </trkpt>
      <trkpt lat="50.03073" lon="2.18236">
        <ele>81.37</ele>
        <time>2022-01-12T13:45:36Z</time>
      </trkpt>
      <trkpt lat="50.03095" lon="2.18227">
        <ele>80.41</ele>
        <time>2022-01-12T13:45:52Z</time>
      </trkpt>
      <trkpt lat="50.03123" lon="2.18224">
        <ele>79.93</ele>
        <time>2022-01-12T13:46:11Z</time>
      </trkpt>
      <trkpt lat="50.03148" lon="2.18229">
        <ele>79.93</ele>
        <time>2022-01-12T13:46:29Z</time>
      </trkpt>
      <trkpt lat="50.03173" lon="2.18238">
        <ele>79.45</ele>
        <time>2022-01-12T13:46:47Z</time>
      </trkpt>
      <trkpt lat="50.03195" lon="2.18246">
        <ele>79.45</ele>
        <time>2022-01-12T13:47:04Z</time>
      </trkpt>
      <trkpt lat="50.03203" lon="2.1825">
        <ele>79.93</ele>
        <time>2022-01-12T13:47:13Z</time>
      </trkpt>
      <trkpt lat="50.03214" lon="2.18255">
        <ele>79.45</ele>
        <time>2022-01-12T13:47:26Z</time>
      </trkpt>
      <trkpt lat="50.03216" lon="2.18256">
        <ele>79.93</ele>
        <time>2022-01-12T13:47:38Z</time>
      </trkpt>
      <trkpt lat="50.03217" lon="2.18257">
        <ele>82.33</ele>
        <time>2022-01-12T13:47:51Z</time>
      </trkpt>
      <trkpt lat="50.03218" lon="2.18258">
        <ele>83.29</ele>
        <time>2022-01-12T13:48:07Z</time>
      </trkpt>
      <trkpt lat="50.03218" lon="2.18258">
        <ele>83.77</ele>
        <time>2022-01-12T13:48:23Z</time>
      </trkpt>
      <trkpt lat="50.03218" lon="2.18259">
        <ele>83.29</ele>
        <time>2022-01-12T13:48:41Z</time>
      </trkpt>
      <trkpt lat="50.03218" lon="2.18259">
        <ele>83.77</ele>
        <time>2022-01-12T13:48:59Z</time>
      </trkpt>
      <trkpt lat="50.03218" lon="2.1826">
        <ele>83.77</ele>
        <time>2022-01-12T13:49:19Z</time>
      </trkpt>
      <trkpt lat="50.03218" lon="2.1826">
        <ele>84.73</ele>
        <time>2022-01-12T13:49:48Z</time>
      </trkpt>
      <trkpt lat="50.03218" lon="2.1826">
        <ele>84.73</ele>
        <time>2022-01-12T13:50:17Z</time>
      </trkpt>
      <trkpt lat="50.03218" lon="2.18259">
        <ele>84.73</ele>
        <time>2022-01-12T13:50:37Z</time>
      </trkpt>
      <trkpt lat="50.03219" lon="2.18259">
        <ele>85.21</ele>
        <time>2022-01-12T13:50:58Z</time>
      </trkpt>
      <trkpt lat="50.03219" lon="2.1826">
        <ele>85.21</ele>
        <time>2022-01-12T13:51:22Z</time>
      </trkpt>
      <trkpt lat="50.03222" lon="2.18261">
        <ele>84.73</ele>
        <time>2022-01-12T13:51:42Z</time>
      </trkpt>
      <trkpt lat="50.03233" lon="2.18264">
        <ele>82.33</ele>
        <time>2022-01-12T13:51:53Z</time>
      </trkpt>
      <trkpt lat="50.03248" lon="2.18268">
        <ele>80.41</ele>
        <time>2022-01-12T13:52:06Z</time>
      </trkpt>
      <trkpt lat="50.03268" lon="2.18276">
        <ele>77.52</ele>
        <time>2022-01-12T13:52:22Z</time>
      </trkpt>
      <trkpt lat="50.03291" lon="2.18283">
        <ele>75.6</ele>
        <time>2022-01-12T13:52:39Z</time>
      </trkpt>
      <trkpt lat="50.03314" lon="2.1829">
        <ele>76.08</ele>
        <time>2022-01-12T13:52:54Z</time>
      </trkpt>
      <trkpt lat="50.03334" lon="2.18296">
        <ele>77.52</ele>
        <time>2022-01-12T13:53:08Z</time>
      </trkpt>
      <trkpt lat="50.03354" lon="2.18303">
        <ele>77.52</ele>
        <time>2022-01-12T13:53:23Z</time>
      </trkpt>
      <trkpt lat="50.03376" lon="2.18311">
        <ele>75.6</ele>
        <time>2022-01-12T13:53:40Z</time>
      </trkpt>
      <trkpt lat="50.03396" lon="2.18318">
        <ele>73.68</ele>
        <time>2022-01-12T13:53:55Z</time>
      </trkpt>
      <trkpt lat="50.03415" lon="2.18324">
        <ele>72.24</ele>
        <time>2022-01-12T13:54:10Z</time>
      </trkpt>
      <trkpt lat="50.03433" lon="2.18332">
        <ele>71.76</ele>
        <time>2022-01-12T13:54:24Z</time>
      </trkpt>
      <trkpt lat="50.03454" lon="2.18339">
        <ele>70.79</ele>
        <time>2022-01-12T13:54:40Z</time>
      </trkpt>
      <trkpt lat="50.03476" lon="2.18345">
        <ele>71.76</ele>
        <time>2022-01-12T13:54:55Z</time>
      </trkpt>
      <trkpt lat="50.03493" lon="2.18348">
        <ele>72.24</ele>
        <time>2022-01-12T13:55:09Z</time>
      </trkpt>
      <trkpt lat="50.03511" lon="2.18343">
        <ele>74.16</ele>
        <time>2022-01-12T13:55:23Z</time>
      </trkpt>
      <trkpt lat="50.03527" lon="2.18334">
        <ele>74.16</ele>
        <time>2022-01-12T13:55:36Z</time>
      </trkpt>
      <trkpt lat="50.03543" lon="2.18326">
        <ele>73.68</ele>
        <time>2022-01-12T13:55:49Z</time>
      </trkpt>
      <trkpt lat="50.03557" lon="2.18319">
        <ele>72.72</ele>
        <time>2022-01-12T13:56:01Z</time>
      </trkpt>
      <trkpt lat="50.03571" lon="2.18315">
        <ele>71.27</ele>
        <time>2022-01-12T13:56:13Z</time>
      </trkpt>
      <trkpt lat="50.03588" lon="2.18311">
        <ele>70.31</ele>
        <time>2022-01-12T13:56:26Z</time>
      </trkpt>
      <trkpt lat="50.03605" lon="2.18309">
        <ele>68.87</ele>
        <time>2022-01-12T13:56:40Z</time>
      </trkpt>
      <trkpt lat="50.03619" lon="2.18305">
        <ele>68.39</ele>
        <time>2022-01-12T13:56:51Z</time>
      </trkpt>
      <trkpt lat="50.03636" lon="2.183">
        <ele>68.87</ele>
        <time>2022-01-12T13:57:04Z</time>
      </trkpt>
      <trkpt lat="50.03653" lon="2.18296">
        <ele>70.79</ele>
        <time>2022-01-12T13:57:18Z</time>
      </trkpt>
      <trkpt lat="50.03665" lon="2.18292">
        <ele>72.24</ele>
        <time>2022-01-12T13:57:30Z</time>
      </trkpt>
      <trkpt lat="50.03675" lon="2.18288">
        <ele>73.68</ele>
        <time>2022-01-12T13:57:40Z</time>
      </trkpt>
      <trkpt lat="50.03677" lon="2.18289">
        <ele>73.68</ele>
        <time>2022-01-12T13:57:42Z</time>
      </trkpt>
      <trkpt lat="50.03679" lon="2.18294">
        <ele>73.2</ele>
        <time>2022-01-12T13:57:47Z</time>
      </trkpt>
      <trkpt lat="50.03676" lon="2.18305">
        <ele>70.79</ele>
        <time>2022-01-12T13:57:56Z</time>
      </trkpt>
      <trkpt lat="50.03666" lon="2.18322">
        <ele>67.43</ele>
        <time>2022-01-12T13:58:08Z</time>
      </trkpt>
      <trkpt lat="50.03662" lon="2.18332">
        <ele>65.99</ele>
        <time>2022-01-12T13:58:15Z</time>
      </trkpt>
      <trkpt lat="50.03654" lon="2.18348">
        <ele>63.1</ele>
        <time>2022-01-12T13:58:27Z</time>
      </trkpt>
      <trkpt lat="50.03645" lon="2.18367">
        <ele>60.7</ele>
        <time>2022-01-12T13:58:40Z</time>
      </trkpt>
      <trkpt lat="50.03639" lon="2.18385">
        <ele>59.74</ele>
        <time>2022-01-12T13:58:51Z</time>
      </trkpt>
      <trkpt lat="50.03636" lon="2.18399">
        <ele>59.26</ele>
        <time>2022-01-12T13:58:59Z</time>
      </trkpt>
      <trkpt lat="50.03627" lon="2.18424">
        <ele>59.26</ele>
        <time>2022-01-12T13:59:13Z</time>
      </trkpt>
      <trkpt lat="50.03618" lon="2.1844">
        <ele>58.78</ele>
        <time>2022-01-12T13:59:24Z</time>
      </trkpt>
      <trkpt lat="50.03607" lon="2.18464">
        <ele>60.7</ele>
        <time>2022-01-12T13:59:39Z</time>
      </trkpt>
      <trkpt lat="50.03595" lon="2.18496">
        <ele>69.83</ele>
        <time>2022-01-12T13:59:54Z</time>
      </trkpt>
      <trkpt lat="50.03589" lon="2.18518">
        <ele>73.68</ele>
        <time>2022-01-12T14:00:05Z</time>
      </trkpt>
      <trkpt lat="50.03583" lon="2.18545">
        <ele>78</ele>
        <time>2022-01-12T14:00:19Z</time>
      </trkpt>
      <trkpt lat="50.03577" lon="2.18572">
        <ele>81.37</ele>
        <time>2022-01-12T14:00:34Z</time>
      </trkpt>
      <trkpt lat="50.03572" lon="2.18598">
        <ele>83.29</ele>
        <time>2022-01-12T14:00:48Z</time>
      </trkpt>
      <trkpt lat="50.03565" lon="2.18629">
        <ele>84.25</ele>
        <time>2022-01-12T14:01:04Z</time>
      </trkpt>
      <trkpt lat="50.0356" lon="2.18658">
        <ele>85.69</ele>
        <time>2022-01-12T14:01:20Z</time>
      </trkpt>
      <trkpt lat="50.03554" lon="2.18687">
        <ele>87.14</ele>
        <time>2022-01-12T14:01:35Z</time>
      </trkpt>
      <trkpt lat="50.03549" lon="2.18713">
        <ele>88.58</ele>
        <time>2022-01-12T14:01:49Z</time>
      </trkpt>
      <trkpt lat="50.03542" lon="2.18746">
        <ele>90.02</ele>
        <time>2022-01-12T14:02:06Z</time>
      </trkpt>
      <trkpt lat="50.03537" lon="2.18773">
        <ele>91.46</ele>
        <time>2022-01-12T14:02:22Z</time>
      </trkpt>
      <trkpt lat="50.03532" lon="2.18799">
        <ele>91.94</ele>
        <time>2022-01-12T14:02:36Z</time>
      </trkpt>
      <trkpt lat="50.03527" lon="2.18822">
        <ele>92.42</ele>
        <time>2022-01-12T14:02:49Z</time>
      </trkpt>
      <trkpt lat="50.03522" lon="2.18845">
        <ele>93.39</ele>
        <time>2022-01-12T14:03:03Z</time>
      </trkpt>
      <trkpt lat="50.03517" lon="2.18873">
        <ele>94.35</ele>
        <time>2022-01-12T14:03:19Z</time>
      </trkpt>
      <trkpt lat="50.03512" lon="2.18903">
        <ele>95.79</ele>
        <time>2022-01-12T14:03:36Z</time>
      </trkpt>
      <trkpt lat="50.03507" lon="2.18926">
        <ele>96.75</ele>
        <time>2022-01-12T14:03:50Z</time>
      </trkpt>
      <trkpt lat="50.03502" lon="2.18951">
        <ele>97.71</ele>
        <time>2022-01-12T14:04:04Z</time>
      </trkpt>
      <trkpt lat="50.03497" lon="2.18976">
        <ele>98.67</ele>
        <time>2022-01-12T14:04:18Z</time>
      </trkpt>
      <trkpt lat="50.03492" lon="2.19003">
        <ele>100.11</ele>
        <time>2022-01-12T14:04:33Z</time>
      </trkpt>
      <trkpt lat="50.03486" lon="2.19032">
        <ele>101.56</ele>
        <time>2022-01-12T14:04:50Z</time>
      </trkpt>
      <trkpt lat="50.03481" lon="2.19055">
        <ele>102.04</ele>
        <time>2022-01-12T14:05:04Z</time>
      </trkpt>
      <trkpt lat="50.03477" lon="2.19076">
        <ele>103.48</ele>
        <time>2022-01-12T14:05:17Z</time>
      </trkpt>
      <trkpt lat="50.03473" lon="2.19098">
        <ele>104.92</ele>
        <time>2022-01-12T14:05:31Z</time>
      </trkpt>
      <trkpt lat="50.03469" lon="2.19116">
        <ele>104.92</ele>
        <time>2022-01-12T14:05:43Z</time>
      </trkpt>
      <trkpt lat="50.03464" lon="2.19134">
        <ele>106.36</ele>
        <time>2022-01-12T14:05:56Z</time>
      </trkpt>
      <trkpt lat="50.03462" lon="2.19136">
        <ele>106.36</ele>
        <time>2022-01-12T14:05:58Z</time>
      </trkpt>
      <trkpt lat="50.03451" lon="2.19149">
        <ele>108.77</ele>
        <time>2022-01-12T14:06:12Z</time>
      </trkpt>
      <trkpt lat="50.03433" lon="2.19144">
        <ele>108.77</ele>
        <time>2022-01-12T14:06:27Z</time>
      </trkpt>
      <trkpt lat="50.03415" lon="2.19138">
        <ele>107.81</ele>
        <time>2022-01-12T14:06:42Z</time>
      </trkpt>
      <trkpt lat="50.03398" lon="2.19133">
        <ele>107.32</ele>
        <time>2022-01-12T14:06:56Z</time>
      </trkpt>
      <trkpt lat="50.0338" lon="2.19127">
        <ele>107.81</ele>
        <time>2022-01-12T14:07:10Z</time>
      </trkpt>
      <trkpt lat="50.03362" lon="2.19122">
        <ele>108.29</ele>
        <time>2022-01-12T14:07:24Z</time>
      </trkpt>
      <trkpt lat="50.03344" lon="2.19116">
        <ele>108.77</ele>
        <time>2022-01-12T14:07:38Z</time>
      </trkpt>
      <trkpt lat="50.03326" lon="2.19107">
        <ele>108.77</ele>
        <time>2022-01-12T14:07:53Z</time>
      </trkpt>
      <trkpt lat="50.03305" lon="2.19096">
        <ele>109.73</ele>
        <time>2022-01-12T14:08:10Z</time>
      </trkpt>
      <trkpt lat="50.03287" lon="2.19087">
        <ele>110.21</ele>
        <time>2022-01-12T14:08:25Z</time>
      </trkpt>
      <trkpt lat="50.03264" lon="2.19078">
        <ele>110.69</ele>
        <time>2022-01-12T14:08:43Z</time>
      </trkpt>
      <trkpt lat="50.03243" lon="2.1907">
        <ele>110.21</ele>
        <time>2022-01-12T14:09:00Z</time>
      </trkpt>
      <trkpt lat="50.03223" lon="2.19064">
        <ele>110.69</ele>
        <time>2022-01-12T14:09:16Z</time>
      </trkpt>
      <trkpt lat="50.03203" lon="2.19056">
        <ele>110.69</ele>
        <time>2022-01-12T14:09:32Z</time>
      </trkpt>
      <trkpt lat="50.03183" lon="2.19045">
        <ele>111.65</ele>
        <time>2022-01-12T14:09:48Z</time>
      </trkpt>
      <trkpt lat="50.03164" lon="2.19038">
        <ele>112.13</ele>
        <time>2022-01-12T14:10:03Z</time>
      </trkpt>
      <trkpt lat="50.03143" lon="2.19028">
        <ele>112.61</ele>
        <time>2022-01-12T14:10:20Z</time>
      </trkpt>
      <trkpt lat="50.03123" lon="2.19018">
        <ele>113.09</ele>
        <time>2022-01-12T14:10:36Z</time>
      </trkpt>
      <trkpt lat="50.03104" lon="2.19012">
        <ele>112.61</ele>
        <time>2022-01-12T14:10:51Z</time>
      </trkpt>
      <trkpt lat="50.03084" lon="2.19009">
        <ele>113.57</ele>
        <time>2022-01-12T14:11:07Z</time>
      </trkpt>
      <trkpt lat="50.03064" lon="2.19012">
        <ele>115.01</ele>
        <time>2022-01-12T14:11:23Z</time>
      </trkpt>
      <trkpt lat="50.03046" lon="2.1902">
        <ele>115.01</ele>
        <time>2022-01-12T14:11:38Z</time>
      </trkpt>
      <trkpt lat="50.03027" lon="2.19026">
        <ele>115.98</ele>
        <time>2022-01-12T14:11:52Z</time>
      </trkpt>
      <trkpt lat="50.03009" lon="2.19033">
        <ele>117.9</ele>
        <time>2022-01-12T14:12:06Z</time>
      </trkpt>
      <trkpt lat="50.02988" lon="2.19043">
        <ele>121.26</ele>
        <time>2022-01-12T14:12:23Z</time>
      </trkpt>
      <trkpt lat="50.02968" lon="2.19054">
        <ele>122.22</ele>
        <time>2022-01-12T14:12:40Z</time>
      </trkpt>
      <trkpt lat="50.02949" lon="2.19064">
        <ele>121.74</ele>
        <time>2022-01-12T14:12:55Z</time>
      </trkpt>
      <trkpt lat="50.02932" lon="2.19072">
        <ele>121.74</ele>
        <time>2022-01-12T14:13:09Z</time>
      </trkpt>
      <trkpt lat="50.02916" lon="2.19079">
        <ele>121.26</ele>
        <time>2022-01-12T14:13:22Z</time>
      </trkpt>
      <trkpt lat="50.02892" lon="2.19089">
        <ele>121.74</ele>
        <time>2022-01-12T14:13:40Z</time>
      </trkpt>
      <trkpt lat="50.0287" lon="2.19096">
        <ele>122.71</ele>
        <time>2022-01-12T14:13:56Z</time>
      </trkpt>
      <trkpt lat="50.0285" lon="2.19101">
        <ele>122.71</ele>
        <time>2022-01-12T14:14:11Z</time>
      </trkpt>
      <trkpt lat="50.02832" lon="2.19106">
        <ele>123.19</ele>
        <time>2022-01-12T14:14:25Z</time>
      </trkpt>
      <trkpt lat="50.02815" lon="2.19111">
        <ele>124.63</ele>
        <time>2022-01-12T14:14:39Z</time>
      </trkpt>
      <trkpt lat="50.02796" lon="2.19118">
        <ele>126.07</ele>
        <time>2022-01-12T14:14:55Z</time>
      </trkpt>
      <trkpt lat="50.02791" lon="2.1912">
        <ele>125.59</ele>
        <time>2022-01-12T14:15:08Z</time>
      </trkpt>
      <trkpt lat="50.02791" lon="2.1912">
        <ele>125.59</ele>
        <time>2022-01-12T14:15:34Z</time>
      </trkpt>
      <trkpt lat="50.02791" lon="2.1912">
        <ele>125.59</ele>
        <time>2022-01-12T14:15:54Z</time>
      </trkpt>
      <trkpt lat="50.02791" lon="2.1912">
        <ele>125.59</ele>
        <time>2022-01-12T14:16:16Z</time>
      </trkpt>
      <trkpt lat="50.0279" lon="2.19121">
        <ele>125.11</ele>
        <time>2022-01-12T14:16:48Z</time>
      </trkpt>
      <trkpt lat="50.0279" lon="2.1912">
        <ele>124.15</ele>
        <time>2022-01-12T14:17:12Z</time>
      </trkpt>
      <trkpt lat="50.02784" lon="2.19123">
        <ele>122.71</ele>
        <time>2022-01-12T14:17:28Z</time>
      </trkpt>
      <trkpt lat="50.02765" lon="2.19128">
        <ele>119.34</ele>
        <time>2022-01-12T14:17:43Z</time>
      </trkpt>
      <trkpt lat="50.02739" lon="2.19135">
        <ele>118.86</ele>
        <time>2022-01-12T14:18:02Z</time>
      </trkpt>
      <trkpt lat="50.02717" lon="2.19142">
        <ele>118.38</ele>
        <time>2022-01-12T14:18:18Z</time>
      </trkpt>
      <trkpt lat="50.02693" lon="2.19149">
        <ele>118.38</ele>
        <time>2022-01-12T14:18:35Z</time>
      </trkpt>
      <trkpt lat="50.02664" lon="2.19158">
        <ele>119.34</ele>
        <time>2022-01-12T14:18:56Z</time>
      </trkpt>
      <trkpt lat="50.02642" lon="2.19166">
        <ele>120.78</ele>
        <time>2022-01-12T14:19:12Z</time>
      </trkpt>
      <trkpt lat="50.02623" lon="2.19173">
        <ele>119.34</ele>
        <time>2022-01-12T14:19:27Z</time>
      </trkpt>
      <trkpt lat="50.02603" lon="2.19183">
        <ele>118.86</ele>
        <time>2022-01-12T14:19:42Z</time>
      </trkpt>
      <trkpt lat="50.02582" lon="2.19195">
        <ele>118.38</ele>
        <time>2022-01-12T14:19:59Z</time>
      </trkpt>
      <trkpt lat="50.02561" lon="2.19208">
        <ele>118.38</ele>
        <time>2022-01-12T14:20:16Z</time>
      </trkpt>
      <trkpt lat="50.0254" lon="2.19221">
        <ele>119.34</ele>
        <time>2022-01-12T14:20:32Z</time>
      </trkpt>
      <trkpt lat="50.02518" lon="2.1923">
        <ele>118.86</ele>
        <time>2022-01-12T14:20:48Z</time>
      </trkpt>
      <trkpt lat="50.02494" lon="2.19236">
        <ele>118.38</ele>
        <time>2022-01-12T14:21:06Z</time>
      </trkpt>
      <trkpt lat="50.02474" lon="2.19239">
        <ele>117.9</ele>
        <time>2022-01-12T14:21:21Z</time>
      </trkpt>
      <trkpt lat="50.02452" lon="2.19243">
        <ele>118.38</ele>
        <time>2022-01-12T14:21:37Z</time>
      </trkpt>
      <trkpt lat="50.0243" lon="2.19251">
        <ele>119.82</ele>
        <time>2022-01-12T14:21:54Z</time>
      </trkpt>
      <trkpt lat="50.02413" lon="2.19259">
        <ele>120.3</ele>
        <time>2022-01-12T14:22:08Z</time>
      </trkpt>
      <trkpt lat="50.02392" lon="2.19266">
        <ele>119.34</ele>
        <time>2022-01-12T14:22:24Z</time>
      </trkpt>
      <trkpt lat="50.02369" lon="2.19261">
        <ele>121.26</ele>
        <time>2022-01-12T14:22:41Z</time>
      </trkpt>
      <trkpt lat="50.02348" lon="2.19249">
        <ele>120.78</ele>
        <time>2022-01-12T14:22:58Z</time>
      </trkpt>
      <trkpt lat="50.0233" lon="2.19239">
        <ele>121.26</ele>
        <time>2022-01-12T14:23:13Z</time>
      </trkpt>
      <trkpt lat="50.02312" lon="2.1923">
        <ele>121.74</ele>
        <time>2022-01-12T14:23:27Z</time>
      </trkpt>
      <trkpt lat="50.02294" lon="2.1922">
        <ele>121.26</ele>
        <time>2022-01-12T14:23:42Z</time>
      </trkpt>
      <trkpt lat="50.02278" lon="2.19212">
        <ele>120.78</ele>
        <time>2022-01-12T14:23:55Z</time>
      </trkpt>
      <trkpt lat="50.02259" lon="2.19201">
        <ele>120.3</ele>
        <time>2022-01-12T14:24:11Z</time>
      </trkpt>
      <trkpt lat="50.0224" lon="2.1919">
        <ele>122.71</ele>
        <time>2022-01-12T14:24:26Z</time>
      </trkpt>
      <trkpt lat="50.0222" lon="2.19179">
        <ele>124.15</ele>
        <time>2022-01-12T14:24:42Z</time>
      </trkpt>
      <trkpt lat="50.02199" lon="2.19166">
        <ele>125.11</ele>
        <time>2022-01-12T14:24:59Z</time>
      </trkpt>
      <trkpt lat="50.0218" lon="2.19154">
        <ele>127.03</ele>
        <time>2022-01-12T14:25:15Z</time>
      </trkpt>
      <trkpt lat="50.0216" lon="2.1914">
        <ele>127.51</ele>
        <time>2022-01-12T14:25:31Z</time>
      </trkpt>
      <trkpt lat="50.02138" lon="2.19125">
        <ele>128.47</ele>
        <time>2022-01-12T14:25:49Z</time>
      </trkpt>
      <trkpt lat="50.0212" lon="2.19113">
        <ele>127.51</ele>
        <time>2022-01-12T14:26:04Z</time>
      </trkpt>
      <trkpt lat="50.02099" lon="2.19099">
        <ele>127.51</ele>
        <time>2022-01-12T14:26:20Z</time>
      </trkpt>
      <trkpt lat="50.02081" lon="2.19085">
        <ele>128.47</ele>
        <time>2022-01-12T14:26:34Z</time>
      </trkpt>
      <trkpt lat="50.02062" lon="2.19069">
        <ele>127.51</ele>
        <time>2022-01-12T14:26:49Z</time>
      </trkpt>
      <trkpt lat="50.02042" lon="2.19055">
        <ele>126.55</ele>
        <time>2022-01-12T14:27:06Z</time>
      </trkpt>
      <trkpt lat="50.02021" lon="2.19039">
        <ele>126.55</ele>
        <time>2022-01-12T14:27:23Z</time>
      </trkpt>
      <trkpt lat="50.02001" lon="2.19024">
        <ele>125.11</ele>
        <time>2022-01-12T14:27:40Z</time>
      </trkpt>
      <trkpt lat="50.0198" lon="2.19009">
        <ele>124.15</ele>
        <time>2022-01-12T14:27:57Z</time>
      </trkpt>
      <trkpt lat="50.01965" lon="2.18998">
        <ele>124.15</ele>
        <time>2022-01-12T14:28:10Z</time>
      </trkpt>
      <trkpt lat="50.01948" lon="2.18987">
        <ele>124.63</ele>
        <time>2022-01-12T14:28:24Z</time>
      </trkpt>
      <trkpt lat="50.01935" lon="2.18977">
        <ele>123.19</ele>
        <time>2022-01-12T14:28:36Z</time>
      </trkpt>
      <trkpt lat="50.01915" lon="2.18963">
        <ele>122.71</ele>
        <time>2022-01-12T14:28:52Z</time>
      </trkpt>
      <trkpt lat="50.01898" lon="2.1895">
        <ele>123.67</ele>
        <time>2022-01-12T14:29:07Z</time>
      </trkpt>
      <trkpt lat="50.01878" lon="2.18935">
        <ele>123.67</ele>
        <time>2022-01-12T14:29:24Z</time>
      </trkpt>
      <trkpt lat="50.01861" lon="2.18923">
        <ele>123.67</ele>
        <time>2022-01-12T14:29:39Z</time>
      </trkpt>
      <trkpt lat="50.01857" lon="2.1892">
        <ele>123.19</ele>
        <time>2022-01-12T14:29:48Z</time>
      </trkpt>
      <trkpt lat="50.01853" lon="2.18916">
        <ele>122.71</ele>
        <time>2022-01-12T14:30:03Z</time>
      </trkpt>
      <trkpt lat="50.01837" lon="2.18905">
        <ele>121.74</ele>
        <time>2022-01-12T14:30:17Z</time>
      </trkpt>
      <trkpt lat="50.0182" lon="2.18896">
        <ele>121.26</ele>
        <time>2022-01-12T14:30:31Z</time>
      </trkpt>
      <trkpt lat="50.01803" lon="2.18885">
        <ele>122.22</ele>
        <time>2022-01-12T14:30:45Z</time>
      </trkpt>
      <trkpt lat="50.01787" lon="2.18875">
        <ele>122.22</ele>
        <time>2022-01-12T14:30:58Z</time>
      </trkpt>
      <trkpt lat="50.01773" lon="2.18869">
        <ele>123.67</ele>
        <time>2022-01-12T14:31:09Z</time>
      </trkpt>
      <trkpt lat="50.01767" lon="2.18866">
        <ele>125.59</ele>
        <time>2022-01-12T14:31:18Z</time>
      </trkpt>
      <trkpt lat="50.0176" lon="2.1889">
        <ele>126.55</ele>
        <time>2022-01-12T14:31:32Z</time>
      </trkpt>
      <trkpt lat="50.01754" lon="2.18912">
        <ele>126.07</ele>
        <time>2022-01-12T14:31:43Z</time>
      </trkpt>
      <trkpt lat="50.01748" lon="2.18931">
        <ele>123.19</ele>
        <time>2022-01-12T14:31:54Z</time>
      </trkpt>
      <trkpt lat="50.0174" lon="2.1896">
        <ele>123.19</ele>
        <time>2022-01-12T14:32:09Z</time>
      </trkpt>
      <trkpt lat="50.01736" lon="2.18987">
        <ele>122.22</ele>
        <time>2022-01-12T14:32:23Z</time>
      </trkpt>
      <trkpt lat="50.01728" lon="2.19017">
        <ele>120.3</ele>
        <time>2022-01-12T14:32:38Z</time>
      </trkpt>
      <trkpt lat="50.01721" lon="2.19041">
        <ele>118.86</ele>
        <time>2022-01-12T14:32:51Z</time>
      </trkpt>
      <trkpt lat="50.01715" lon="2.19065">
        <ele>118.38</ele>
        <time>2022-01-12T14:33:04Z</time>
      </trkpt>
      <trkpt lat="50.01711" lon="2.19085">
        <ele>116.46</ele>
        <time>2022-01-12T14:33:14Z</time>
      </trkpt>
      <trkpt lat="50.01706" lon="2.19103">
        <ele>116.46</ele>
        <time>2022-01-12T14:33:24Z</time>
      </trkpt>
      <trkpt lat="50.017" lon="2.19128">
        <ele>116.94</ele>
        <time>2022-01-12T14:33:37Z</time>
      </trkpt>
      <trkpt lat="50.01695" lon="2.19154">
        <ele>116.94</ele>
        <time>2022-01-12T14:33:52Z</time>
      </trkpt>
      <trkpt lat="50.01692" lon="2.19171">
        <ele>116.94</ele>
        <time>2022-01-12T14:34:02Z</time>
      </trkpt>
      <trkpt lat="50.01687" lon="2.19192">
        <ele>115.5</ele>
        <time>2022-01-12T14:34:16Z</time>
      </trkpt>
      <trkpt lat="50.01682" lon="2.19213">
        <ele>115.01</ele>
        <time>2022-01-12T14:34:29Z</time>
      </trkpt>
      <trkpt lat="50.01676" lon="2.19235">
        <ele>117.42</ele>
        <time>2022-01-12T14:34:42Z</time>
      </trkpt>
      <trkpt lat="50.01671" lon="2.19256">
        <ele>118.38</ele>
        <time>2022-01-12T14:34:53Z</time>
      </trkpt>
      <trkpt lat="50.01665" lon="2.19281">
        <ele>117.9</ele>
        <time>2022-01-12T14:35:05Z</time>
      </trkpt>
      <trkpt lat="50.01659" lon="2.19307">
        <ele>116.46</ele>
        <time>2022-01-12T14:35:18Z</time>
      </trkpt>
      <trkpt lat="50.01659" lon="2.19309">
        <ele>116.46</ele>
        <time>2022-01-12T14:35:19Z</time>
      </trkpt>
      <trkpt lat="50.0165" lon="2.19335">
        <ele>113.57</ele>
        <time>2022-01-12T14:35:34Z</time>
      </trkpt>
      <trkpt lat="50.01646" lon="2.19358">
        <ele>113.09</ele>
        <time>2022-01-12T14:35:47Z</time>
      </trkpt>
      <trkpt lat="50.01641" lon="2.19376">
        <ele>110.21</ele>
        <time>2022-01-12T14:36:00Z</time>
      </trkpt>
      <trkpt lat="50.01638" lon="2.19394">
        <ele>107.81</ele>
        <time>2022-01-12T14:36:08Z</time>
      </trkpt>
      <trkpt lat="50.01632" lon="2.19426">
        <ele>107.81</ele>
        <time>2022-01-12T14:36:22Z</time>
      </trkpt>
      <trkpt lat="50.01628" lon="2.19452">
        <ele>107.81</ele>
        <time>2022-01-12T14:36:35Z</time>
      </trkpt>
      <trkpt lat="50.01629" lon="2.19483">
        <ele>111.17</ele>
        <time>2022-01-12T14:36:50Z</time>
      </trkpt>
      <trkpt lat="50.0163" lon="2.19507">
        <ele>111.17</ele>
        <time>2022-01-12T14:37:03Z</time>
      </trkpt>
      <trkpt lat="50.01627" lon="2.19532">
        <ele>109.73</ele>
        <time>2022-01-12T14:37:16Z</time>
      </trkpt>
      <trkpt lat="50.01625" lon="2.1956">
        <ele>109.25</ele>
        <time>2022-01-12T14:37:30Z</time>
      </trkpt>
      <trkpt lat="50.01621" lon="2.19586">
        <ele>111.17</ele>
        <time>2022-01-12T14:37:43Z</time>
      </trkpt>
      <trkpt lat="50.01618" lon="2.19602">
        <ele>113.09</ele>
        <time>2022-01-12T14:37:51Z</time>
      </trkpt>
      <trkpt lat="50.01618" lon="2.19607">
        <ele>113.57</ele>
        <time>2022-01-12T14:37:54Z</time>
      </trkpt>
      <trkpt lat="50.01612" lon="2.19636">
        <ele>114.05</ele>
        <time>2022-01-12T14:38:09Z</time>
      </trkpt>
      <trkpt lat="50.01607" lon="2.19663">
        <ele>113.09</ele>
        <time>2022-01-12T14:38:22Z</time>
      </trkpt>
      <trkpt lat="50.016" lon="2.19689">
        <ele>114.05</ele>
        <time>2022-01-12T14:38:36Z</time>
      </trkpt>
      <trkpt lat="50.01595" lon="2.19709">
        <ele>113.57</ele>
        <time>2022-01-12T14:38:48Z</time>
      </trkpt>
      <trkpt lat="50.01593" lon="2.19716">
        <ele>113.09</ele>
        <time>2022-01-12T14:38:52Z</time>
      </trkpt>
      <trkpt lat="50.0159" lon="2.19722">
        <ele>113.09</ele>
        <time>2022-01-12T14:38:56Z</time>
      </trkpt>
      <trkpt lat="50.01577" lon="2.19725">
        <ele>112.13</ele>
        <time>2022-01-12T14:39:10Z</time>
      </trkpt>
      <trkpt lat="50.01565" lon="2.19717">
        <ele>111.65</ele>
        <time>2022-01-12T14:39:21Z</time>
      </trkpt>
      <trkpt lat="50.01552" lon="2.1971">
        <ele>113.57</ele>
        <time>2022-01-12T14:39:33Z</time>
      </trkpt>
      <trkpt lat="50.01539" lon="2.19701">
        <ele>110.69</ele>
        <time>2022-01-12T14:39:45Z</time>
      </trkpt>
      <trkpt lat="50.01536" lon="2.19701">
        <ele>110.69</ele>
        <time>2022-01-12T14:39:47Z</time>
      </trkpt>
      <trkpt lat="50.01519" lon="2.19708">
        <ele>111.65</ele>
        <time>2022-01-12T14:40:00Z</time>
      </trkpt>
      <trkpt lat="50.01509" lon="2.19727">
        <ele>112.61</ele>
        <time>2022-01-12T14:40:12Z</time>
      </trkpt>
      <trkpt lat="50.015" lon="2.19752">
        <ele>110.69</ele>
        <time>2022-01-12T14:40:27Z</time>
      </trkpt>
      <trkpt lat="50.01495" lon="2.19775">
        <ele>110.69</ele>
        <time>2022-01-12T14:40:40Z</time>
      </trkpt>
      <trkpt lat="50.01491" lon="2.19788">
        <ele>112.13</ele>
        <time>2022-01-12T14:40:51Z</time>
      </trkpt>
      <trkpt lat="50.01492" lon="2.19791">
        <ele>115.5</ele>
        <time>2022-01-12T14:41:11Z</time>
      </trkpt>
      <trkpt lat="50.01493" lon="2.19794">
        <ele>118.86</ele>
        <time>2022-01-12T14:41:27Z</time>
      </trkpt>
      <trkpt lat="50.01492" lon="2.19794">
        <ele>122.22</ele>
        <time>2022-01-12T14:41:44Z</time>
      </trkpt>
      <trkpt lat="50.01491" lon="2.19794">
        <ele>122.22</ele>
        <time>2022-01-12T14:41:58Z</time>
      </trkpt>
      <trkpt lat="50.01492" lon="2.19794">
        <ele>122.71</ele>
        <time>2022-01-12T14:42:14Z</time>
      </trkpt>
      <trkpt lat="50.01492" lon="2.19794">
        <ele>122.22</ele>
        <time>2022-01-12T14:42:28Z</time>
      </trkpt>
      <trkpt lat="50.01492" lon="2.19793">
        <ele>122.22</ele>
        <time>2022-01-12T14:42:42Z</time>
      </trkpt>
      <trkpt lat="50.01491" lon="2.19793">
        <ele>123.19</ele>
        <time>2022-01-12T14:43:03Z</time>
      </trkpt>
      <trkpt lat="50.0149" lon="2.19794">
        <ele>123.19</ele>
        <time>2022-01-12T14:43:18Z</time>
      </trkpt>
      <trkpt lat="50.01488" lon="2.19795">
        <ele>123.19</ele>
        <time>2022-01-12T14:43:20Z</time>
      </trkpt>
      <trkpt lat="50.01481" lon="2.19795">
        <ele>122.71</ele>
        <time>2022-01-12T14:43:26Z</time>
      </trkpt>
      <trkpt lat="50.01467" lon="2.19785">
        <ele>119.82</ele>
        <time>2022-01-12T14:43:38Z</time>
      </trkpt>
      <trkpt lat="50.01455" lon="2.19778">
        <ele>116.46</ele>
        <time>2022-01-12T14:43:50Z</time>
      </trkpt>
      <trkpt lat="50.01441" lon="2.19769">
        <ele>115.01</ele>
        <time>2022-01-12T14:44:01Z</time>
      </trkpt>
      <trkpt lat="50.01429" lon="2.19762">
        <ele>112.61</ele>
        <time>2022-01-12T14:44:13Z</time>
      </trkpt>
      <trkpt lat="50.01423" lon="2.19759">
        <ele>111.17</ele>
        <time>2022-01-12T14:44:18Z</time>
      </trkpt>
      <trkpt lat="50.0141" lon="2.19752">
        <ele>107.81</ele>
        <time>2022-01-12T14:44:30Z</time>
      </trkpt>
      <trkpt lat="50.014" lon="2.19747">
        <ele>105.4</ele>
        <time>2022-01-12T14:44:39Z</time>
      </trkpt>
      <trkpt lat="50.01397" lon="2.19745">
        <ele>104.92</ele>
        <time>2022-01-12T14:44:42Z</time>
      </trkpt>
      <trkpt lat="50.01383" lon="2.19732">
        <ele>104.92</ele>
        <time>2022-01-12T14:44:54Z</time>
      </trkpt>
      <trkpt lat="50.01366" lon="2.19726">
        <ele>104.92</ele>
        <time>2022-01-12T14:45:07Z</time>
      </trkpt>
      <trkpt lat="50.01354" lon="2.19719">
        <ele>102.52</ele>
        <time>2022-01-12T14:45:19Z</time>
      </trkpt>
      <trkpt lat="50.01338" lon="2.19718">
        <ele>101.08</ele>
        <time>2022-01-12T14:45:33Z</time>
      </trkpt>
      <trkpt lat="50.01323" lon="2.19722">
        <ele>104.44</ele>
        <time>2022-01-12T14:45:44Z</time>
      </trkpt>
      <trkpt lat="50.01317" lon="2.19724">
        <ele>108.29</ele>
        <time>2022-01-12T14:45:48Z</time>
      </trkpt>
      <trkpt lat="50.01321" lon="2.19755">
        <ele>111.65</ele>
        <time>2022-01-12T14:46:06Z</time>
      </trkpt>
      <trkpt lat="50.01322" lon="2.19785">
        <ele>112.13</ele>
        <time>2022-01-12T14:46:21Z</time>
      </trkpt>
      <trkpt lat="50.01325" lon="2.19802">
        <ele>113.09</ele>
        <time>2022-01-12T14:46:30Z</time>
      </trkpt>
      <trkpt lat="50.01335" lon="2.19813">
        <ele>112.61</ele>
        <time>2022-01-12T14:46:43Z</time>
      </trkpt>
      <trkpt lat="50.01335" lon="2.19825">
        <ele>112.13</ele>
        <time>2022-01-12T14:46:51Z</time>
      </trkpt>
      <trkpt lat="50.01335" lon="2.19852">
        <ele>111.65</ele>
        <time>2022-01-12T14:47:04Z</time>
      </trkpt>
      <trkpt lat="50.01335" lon="2.19882">
        <ele>113.57</ele>
        <time>2022-01-12T14:47:19Z</time>
      </trkpt>
      <trkpt lat="50.01335" lon="2.19906">
        <ele>114.53</ele>
        <time>2022-01-12T14:47:30Z</time>
      </trkpt>
      <trkpt lat="50.01332" lon="2.19935">
        <ele>112.61</ele>
        <time>2022-01-12T14:47:44Z</time>
      </trkpt>
      <trkpt lat="50.0133" lon="2.19968">
        <ele>115.01</ele>
        <time>2022-01-12T14:47:58Z</time>
      </trkpt>
      <trkpt lat="50.01329" lon="2.19992">
        <ele>116.46</ele>
        <time>2022-01-12T14:48:10Z</time>
      </trkpt>
      <trkpt lat="50.01328" lon="2.20017">
        <ele>116.46</ele>
        <time>2022-01-12T14:48:23Z</time>
      </trkpt>
      <trkpt lat="50.01328" lon="2.2003">
        <ele>117.42</ele>
        <time>2022-01-12T14:48:29Z</time>
      </trkpt>
      <trkpt lat="50.01324" lon="2.20058">
        <ele>116.46</ele>
        <time>2022-01-12T14:48:43Z</time>
      </trkpt>
      <trkpt lat="50.01322" lon="2.20077">
        <ele>114.53</ele>
        <time>2022-01-12T14:48:54Z</time>
      </trkpt>
      <trkpt lat="50.0132" lon="2.20088">
        <ele>115.5</ele>
        <time>2022-01-12T14:49:02Z</time>
      </trkpt>
      <trkpt lat="50.01303" lon="2.20091">
        <ele>118.86</ele>
        <time>2022-01-12T14:49:17Z</time>
      </trkpt>
      <trkpt lat="50.01288" lon="2.20092">
        <ele>118.86</ele>
        <time>2022-01-12T14:49:29Z</time>
      </trkpt>
      <trkpt lat="50.01266" lon="2.20089">
        <ele>119.34</ele>
        <time>2022-01-12T14:49:44Z</time>
      </trkpt>
      <trkpt lat="50.01246" lon="2.20086">
        <ele>121.74</ele>
        <time>2022-01-12T14:49:58Z</time>
      </trkpt>
      <trkpt lat="50.01228" lon="2.20081">
        <ele>121.74</ele>
        <time>2022-01-12T14:50:12Z</time>
      </trkpt>
      <trkpt lat="50.01211" lon="2.20077">
        <ele>122.71</ele>
        <time>2022-01-12T14:50:26Z</time>
      </trkpt>
      <trkpt lat="50.01193" lon="2.20071">
        <ele>123.19</ele>
        <time>2022-01-12T14:50:40Z</time>
      </trkpt>
      <trkpt lat="50.01176" lon="2.20065">
        <ele>123.19</ele>
        <time>2022-01-12T14:50:54Z</time>
      </trkpt>
      <trkpt lat="50.01163" lon="2.20071">
        <ele>123.67</ele>
        <time>2022-01-12T14:51:05Z</time>
      </trkpt>
      <trkpt lat="50.01163" lon="2.20072">
        <ele>123.67</ele>
        <time>2022-01-12T14:51:06Z</time>
      </trkpt>
      <trkpt lat="50.01163" lon="2.20087">
        <ele>123.67</ele>
        <time>2022-01-12T14:51:15Z</time>
      </trkpt>
      <trkpt lat="50.01165" lon="2.2012">
        <ele>124.15</ele>
        <time>2022-01-12T14:51:32Z</time>
      </trkpt>
      <trkpt lat="50.01163" lon="2.20143">
        <ele>124.63</ele>
        <time>2022-01-12T14:51:44Z</time>
      </trkpt>
      <trkpt lat="50.01161" lon="2.20168">
        <ele>124.63</ele>
        <time>2022-01-12T14:51:57Z</time>
      </trkpt>
      <trkpt lat="50.01163" lon="2.20195">
        <ele>125.11</ele>
        <time>2022-01-12T14:52:10Z</time>
      </trkpt>
      <trkpt lat="50.01159" lon="2.20224">
        <ele>124.15</ele>
        <time>2022-01-12T14:52:23Z</time>
      </trkpt>
      <trkpt lat="50.01147" lon="2.20251">
        <ele>124.15</ele>
        <time>2022-01-12T14:52:38Z</time>
      </trkpt>
      <trkpt lat="50.01131" lon="2.20276">
        <ele>124.63</ele>
        <time>2022-01-12T14:52:54Z</time>
      </trkpt>
      <trkpt lat="50.01118" lon="2.20295">
        <ele>124.63</ele>
        <time>2022-01-12T14:53:07Z</time>
      </trkpt>
      <trkpt lat="50.01106" lon="2.20316">
        <ele>124.15</ele>
        <time>2022-01-12T14:53:21Z</time>
      </trkpt>
      <trkpt lat="50.01092" lon="2.20336">
        <ele>125.59</ele>
        <time>2022-01-12T14:53:35Z</time>
      </trkpt>
      <trkpt lat="50.01076" lon="2.20363">
        <ele>126.07</ele>
        <time>2022-01-12T14:53:52Z</time>
      </trkpt>
      <trkpt lat="50.01063" lon="2.20384">
        <ele>123.67</ele>
        <time>2022-01-12T14:54:07Z</time>
      </trkpt>
      <trkpt lat="50.01054" lon="2.20401">
        <ele>116.46</ele>
        <time>2022-01-12T14:54:19Z</time>
      </trkpt>
      <trkpt lat="50.01053" lon="2.20402">
        <ele>115.98</ele>
        <time>2022-01-12T14:54:20Z</time>
      </trkpt>
      <trkpt lat="50.01048" lon="2.2042">
        <ele>112.13</ele>
        <time>2022-01-12T14:54:30Z</time>
      </trkpt>
      <trkpt lat="50.01048" lon="2.20422">
        <ele>112.61</ele>
        <time>2022-01-12T14:54:31Z</time>
      </trkpt>
      <trkpt lat="50.0104" lon="2.20457">
        <ele>114.53</ele>
        <time>2022-01-12T14:54:48Z</time>
      </trkpt>
      <trkpt lat="50.01038" lon="2.20463">
        <ele>114.53</ele>
        <time>2022-01-12T14:54:51Z</time>
      </trkpt>
      <trkpt lat="50.01021" lon="2.20491">
        <ele>117.42</ele>
        <time>2022-01-12T14:55:08Z</time>
      </trkpt>
      <trkpt lat="50.0101" lon="2.20521">
        <ele>118.86</ele>
        <time>2022-01-12T14:55:25Z</time>
      </trkpt>
      <trkpt lat="50.01001" lon="2.20553">
        <ele>119.82</ele>
        <time>2022-01-12T14:55:42Z</time>
      </trkpt>
      <trkpt lat="50.00993" lon="2.20589">
        <ele>119.82</ele>
        <time>2022-01-12T14:56:01Z</time>
      </trkpt>
      <trkpt lat="50.0099" lon="2.20614">
        <ele>120.3</ele>
        <time>2022-01-12T14:56:15Z</time>
      </trkpt>
      <trkpt lat="50.00989" lon="2.20618">
        <ele>120.3</ele>
        <time>2022-01-12T14:56:17Z</time>
      </trkpt>
      <trkpt lat="50.00988" lon="2.20621">
        <ele>120.3</ele>
        <time>2022-01-12T14:56:19Z</time>
      </trkpt>
      <trkpt lat="50.00982" lon="2.20633">
        <ele>120.78</ele>
        <time>2022-01-12T14:56:32Z</time>
      </trkpt>
      <trkpt lat="50.00979" lon="2.20631">
        <ele>121.26</ele>
        <time>2022-01-12T14:56:38Z</time>
      </trkpt>
      <trkpt lat="50.00965" lon="2.20609">
        <ele>121.74</ele>
        <time>2022-01-12T14:56:54Z</time>
      </trkpt>
      <trkpt lat="50.0096" lon="2.20599">
        <ele>120.78</ele>
        <time>2022-01-12T14:57:07Z</time>
      </trkpt>
      <trkpt lat="50.00959" lon="2.20599">
        <ele>121.74</ele>
        <time>2022-01-12T14:57:28Z</time>
      </trkpt>
      <trkpt lat="50.00958" lon="2.20599">
        <ele>121.74</ele>
        <time>2022-01-12T14:57:53Z</time>
      </trkpt>
      <trkpt lat="50.00958" lon="2.20599">
        <ele>123.19</ele>
        <time>2022-01-12T14:58:13Z</time>
      </trkpt>
      <trkpt lat="50.00958" lon="2.20598">
        <ele>122.22</ele>
        <time>2022-01-12T14:58:30Z</time>
      </trkpt>
      <trkpt lat="50.00958" lon="2.20596">
        <ele>121.74</ele>
        <time>2022-01-12T14:59:04Z</time>
      </trkpt>
      <trkpt lat="50.00958" lon="2.20596">
        <ele>121.74</ele>
        <time>2022-01-12T14:59:22Z</time>
      </trkpt>
      <trkpt lat="50.00958" lon="2.20597">
        <ele>121.74</ele>
        <time>2022-01-12T14:59:47Z</time>
      </trkpt>
      <trkpt lat="50.00958" lon="2.20599">
        <ele>121.74</ele>
        <time>2022-01-12T15:00:10Z</time>
      </trkpt>
      <trkpt lat="50.00958" lon="2.20599">
        <ele>122.71</ele>
        <time>2022-01-12T15:00:39Z</time>
      </trkpt>
      <trkpt lat="50.00959" lon="2.206">
        <ele>123.19</ele>
        <time>2022-01-12T15:01:05Z</time>
      </trkpt>
      <trkpt lat="50.00959" lon="2.20599">
        <ele>124.15</ele>
        <time>2022-01-12T15:01:27Z</time>
      </trkpt>
      <trkpt lat="50.00959" lon="2.20599">
        <ele>124.63</ele>
        <time>2022-01-12T15:01:56Z</time>
      </trkpt>
      <trkpt lat="50.00959" lon="2.20598">
        <ele>124.15</ele>
        <time>2022-01-12T15:02:23Z</time>
      </trkpt>
      <trkpt lat="50.00959" lon="2.20599">
        <ele>123.67</ele>
        <time>2022-01-12T15:02:52Z</time>
      </trkpt>
      <trkpt lat="50.00959" lon="2.206">
        <ele>123.19</ele>
        <time>2022-01-12T15:03:16Z</time>
      </trkpt>
      <trkpt lat="50.0096" lon="2.20599">
        <ele>123.19</ele>
        <time>2022-01-12T15:03:42Z</time>
      </trkpt>
      <trkpt lat="50.0096" lon="2.20599">
        <ele>123.19</ele>
        <time>2022-01-12T15:04:01Z</time>
      </trkpt>
      <trkpt lat="50.00958" lon="2.20595">
        <ele>123.19</ele>
        <time>2022-01-12T15:04:13Z</time>
      </trkpt>
      <trkpt lat="50.00951" lon="2.20575">
        <ele>123.19</ele>
        <time>2022-01-12T15:04:25Z</time>
      </trkpt>
      <trkpt lat="50.00941" lon="2.20549">
        <ele>123.19</ele>
        <time>2022-01-12T15:04:40Z</time>
      </trkpt>
      <trkpt lat="50.00931" lon="2.20523">
        <ele>124.15</ele>
        <time>2022-01-12T15:04:55Z</time>
      </trkpt>
      <trkpt lat="50.00918" lon="2.20489">
        <ele>124.15</ele>
        <time>2022-01-12T15:05:14Z</time>
      </trkpt>
      <trkpt lat="50.00907" lon="2.20459">
        <ele>123.19</ele>
        <time>2022-01-12T15:05:30Z</time>
      </trkpt>
      <trkpt lat="50.00894" lon="2.20429">
        <ele>123.19</ele>
        <time>2022-01-12T15:05:47Z</time>
      </trkpt>
      <trkpt lat="50.00881" lon="2.20399">
        <ele>124.15</ele>
        <time>2022-01-12T15:06:04Z</time>
      </trkpt>
      <trkpt lat="50.00866" lon="2.2037">
        <ele>125.59</ele>
        <time>2022-01-12T15:06:21Z</time>
      </trkpt>
      <trkpt lat="50.00854" lon="2.20345">
        <ele>125.11</ele>
        <time>2022-01-12T15:06:36Z</time>
      </trkpt>
      <trkpt lat="50.00839" lon="2.20318">
        <ele>123.67</ele>
        <time>2022-01-12T15:06:53Z</time>
      </trkpt>
      <trkpt lat="50.00825" lon="2.20293">
        <ele>123.19</ele>
        <time>2022-01-12T15:07:08Z</time>
      </trkpt>
      <trkpt lat="50.00811" lon="2.20267">
        <ele>122.22</ele>
        <time>2022-01-12T15:07:24Z</time>
      </trkpt>
      <trkpt lat="50.00801" lon="2.20234">
        <ele>121.26</ele>
        <time>2022-01-12T15:07:42Z</time>
      </trkpt>
      <trkpt lat="50.00798" lon="2.20211">
        <ele>120.3</ele>
        <time>2022-01-12T15:07:53Z</time>
      </trkpt>
      <trkpt lat="50.00793" lon="2.2018">
        <ele>119.34</ele>
        <time>2022-01-12T15:08:08Z</time>
      </trkpt>
      <trkpt lat="50.00787" lon="2.20144">
        <ele>119.34</ele>
        <time>2022-01-12T15:08:25Z</time>
      </trkpt>
      <trkpt lat="50.00782" lon="2.20113">
        <ele>118.38</ele>
        <time>2022-01-12T15:08:41Z</time>
      </trkpt>
      <trkpt lat="50.00776" lon="2.20084">
        <ele>118.86</ele>
        <time>2022-01-12T15:08:55Z</time>
      </trkpt>
      <trkpt lat="50.00773" lon="2.20055">
        <ele>119.82</ele>
        <time>2022-01-12T15:09:09Z</time>
      </trkpt>
      <trkpt lat="50.00779" lon="2.20034">
        <ele>120.3</ele>
        <time>2022-01-12T15:09:20Z</time>
      </trkpt>
      <trkpt lat="50.00787" lon="2.20016">
        <ele>119.34</ele>
        <time>2022-01-12T15:09:32Z</time>
      </trkpt>
      <trkpt lat="50.0079" lon="2.19992">
        <ele>118.86</ele>
        <time>2022-01-12T15:09:45Z</time>
      </trkpt>
      <trkpt lat="50.00789" lon="2.19965">
        <ele>118.86</ele>
        <time>2022-01-12T15:09:59Z</time>
      </trkpt>
      <trkpt lat="50.00791" lon="2.19945">
        <ele>118.86</ele>
        <time>2022-01-12T15:10:10Z</time>
      </trkpt>
      <trkpt lat="50.00791" lon="2.19916">
        <ele>117.9</ele>
        <time>2022-01-12T15:10:24Z</time>
      </trkpt>
      <trkpt lat="50.0079" lon="2.19883">
        <ele>118.38</ele>
        <time>2022-01-12T15:10:40Z</time>
      </trkpt>
      <trkpt lat="50.0079" lon="2.19856">
        <ele>118.38</ele>
        <time>2022-01-12T15:10:53Z</time>
      </trkpt>
      <trkpt lat="50.0079" lon="2.19827">
        <ele>116.46</ele>
        <time>2022-01-12T15:11:07Z</time>
      </trkpt>
      <trkpt lat="50.00789" lon="2.19795">
        <ele>116.94</ele>
        <time>2022-01-12T15:11:22Z</time>
      </trkpt>
      <trkpt lat="50.0079" lon="2.1976">
        <ele>118.86</ele>
        <time>2022-01-12T15:11:39Z</time>
      </trkpt>
      <trkpt lat="50.00791" lon="2.19739">
        <ele>117.9</ele>
        <time>2022-01-12T15:11:50Z</time>
      </trkpt>
      <trkpt lat="50.00802" lon="2.19732">
        <ele>103.96</ele>
        <time>2022-01-12T15:11:59Z</time>
      </trkpt>
      <trkpt lat="50.00814" lon="2.19733">
        <ele>103</ele>
        <time>2022-01-12T15:12:13Z</time>
      </trkpt>
      <trkpt lat="50.0083" lon="2.19741">
        <ele>109.25</ele>
        <time>2022-01-12T15:12:26Z</time>
      </trkpt>
      <trkpt lat="50.00846" lon="2.19753">
        <ele>110.69</ele>
        <time>2022-01-12T15:12:40Z</time>
      </trkpt>
      <trkpt lat="50.00858" lon="2.19763">
        <ele>112.13</ele>
        <time>2022-01-12T15:12:52Z</time>
      </trkpt>
      <trkpt lat="50.0087" lon="2.19775">
        <ele>110.69</ele>
        <time>2022-01-12T15:13:04Z</time>
      </trkpt>
      <trkpt lat="50.00873" lon="2.19778">
        <ele>112.13</ele>
        <time>2022-01-12T15:13:12Z</time>
      </trkpt>
      <trkpt lat="50.00884" lon="2.19789">
        <ele>94.83</ele>
        <time>2022-01-12T15:13:24Z</time>
      </trkpt>
      <trkpt lat="50.00904" lon="2.19797">
        <ele>80.89</ele>
        <time>2022-01-12T15:13:38Z</time>
      </trkpt>
      <trkpt lat="50.00918" lon="2.1981">
        <ele>90.02</ele>
        <time>2022-01-12T15:13:49Z</time>
      </trkpt>
      <trkpt lat="50.00919" lon="2.19811">
        <ele>90.02</ele>
        <time>2022-01-12T15:13:50Z</time>
      </trkpt>
      <trkpt lat="50.00926" lon="2.19818">
        <ele>89.54</ele>
        <time>2022-01-12T15:13:54Z</time>
      </trkpt>
      <trkpt lat="50.0094" lon="2.19832">
        <ele>88.58</ele>
        <time>2022-01-12T15:14:04Z</time>
      </trkpt>
      <trkpt lat="50.00954" lon="2.19842">
        <ele>92.42</ele>
        <time>2022-01-12T15:14:16Z</time>
      </trkpt>
      <trkpt lat="50.0096" lon="2.19846">
        <ele>90.5</ele>
        <time>2022-01-12T15:14:25Z</time>
      </trkpt>
      <trkpt lat="50.00961" lon="2.19845">
        <ele>88.58</ele>
        <time>2022-01-12T15:14:35Z</time>
      </trkpt>
      <trkpt lat="50.00964" lon="2.19841">
        <ele>95.79</ele>
        <time>2022-01-12T15:14:48Z</time>
      </trkpt>
      <trkpt lat="50.00962" lon="2.19839">
        <ele>89.06</ele>
        <time>2022-01-12T15:14:59Z</time>
      </trkpt>
      <trkpt lat="50.00966" lon="2.19834">
        <ele>77.52</ele>
        <time>2022-01-12T15:15:06Z</time>
      </trkpt>
      <trkpt lat="50.00976" lon="2.19832">
        <ele>74.16</ele>
        <time>2022-01-12T15:15:18Z</time>
      </trkpt>
      <trkpt lat="50.00981" lon="2.19834">
        <ele>80.41</ele>
        <time>2022-01-12T15:15:32Z</time>
      </trkpt>
      <trkpt lat="50.01" lon="2.19845">
        <ele>48.2</ele>
        <time>2022-01-12T15:15:51Z</time>
      </trkpt>
      <trkpt lat="50.0102" lon="2.19856">
        <ele>7.35</ele>
        <time>2022-01-12T15:16:12Z</time>
      </trkpt>
      <trkpt lat="50.01031" lon="2.19857">
        <ele>-9</ele>
        <time>2022-01-12T15:16:29Z</time>
      </trkpt>
      <trkpt lat="50.01042" lon="2.19855">
        <ele>-28.7</ele>
        <time>2022-01-12T15:16:48Z</time>
      </trkpt>
      <trkpt lat="50.0106" lon="2.19842">
        <ele>-56.1</ele>
        <time>2022-01-12T15:17:03Z</time>
      </trkpt>
      <trkpt lat="50.01071" lon="2.19845">
        <ele>-75.33</ele>
        <time>2022-01-12T15:17:15Z</time>
      </trkpt>
      <trkpt lat="50.01085" lon="2.1985">
        <ele>-97.92</ele>
        <time>2022-01-12T15:17:26Z</time>
      </trkpt>
      <trkpt lat="50.01091" lon="2.1985">
        <ele>-109.45</ele>
        <time>2022-01-12T15:17:32Z</time>
      </trkpt>
      <trkpt lat="50.01098" lon="2.19852">
        <ele>-124.83</ele>
        <time>2022-01-12T15:17:40Z</time>
      </trkpt>
      <trkpt lat="50.01114" lon="2.19866">
        <ele>-171.46</ele>
        <time>2022-01-12T15:18:03Z</time>
      </trkpt>
      <trkpt lat="50.01129" lon="2.19865">
        <ele>-208.47</ele>
        <time>2022-01-12T15:18:25Z</time>
      </trkpt>
      <trkpt lat="50.01138" lon="2.19855">
        <ele>-217.6</ele>
        <time>2022-01-12T15:18:32Z</time>
      </trkpt>
      <trkpt lat="50.01161" lon="2.19843">
        <ele>-242.6</ele>
        <time>2022-01-12T15:18:45Z</time>
      </trkpt>
      <trkpt lat="50.01165" lon="2.19842">
        <ele>-246.92</ele>
        <time>2022-01-12T15:18:47Z</time>
      </trkpt>
      <trkpt lat="50.0117" lon="2.19838">
        <ele>-255.09</ele>
        <time>2022-01-12T15:18:50Z</time>
      </trkpt>
      <trkpt lat="50.01194" lon="2.19825">
        <ele>-284.89</ele>
        <time>2022-01-12T15:19:02Z</time>
      </trkpt>
      <trkpt lat="50.012" lon="2.19818">
        <ele>-300.27</ele>
        <time>2022-01-12T15:19:07Z</time>
      </trkpt>
      <trkpt lat="50.01198" lon="2.19792">
        <ele>-322.87</ele>
        <time>2022-01-12T15:19:17Z</time>
      </trkpt>
      <trkpt lat="50.01229" lon="2.19791">
        <ele>-359.4</ele>
        <time>2022-01-12T15:19:31Z</time>
      </trkpt>
      <trkpt lat="50.0123" lon="2.1979">
        <ele>-361.8</ele>
        <time>2022-01-12T15:19:34Z</time>
      </trkpt>
      <trkpt lat="50.0122" lon="2.19781">
        <ele>-369.97</ele>
        <time>2022-01-12T15:19:46Z</time>
      </trkpt>
      <trkpt lat="50.01204" lon="2.19772">
        <ele>-372.85</ele>
        <time>2022-01-12T15:19:59Z</time>
      </trkpt>
      <trkpt lat="50.01184" lon="2.19762">
        <ele>-368.05</ele>
        <time>2022-01-12T15:20:12Z</time>
      </trkpt>
      <trkpt lat="50.01161" lon="2.19748">
        <ele>-363.24</ele>
        <time>2022-01-12T15:20:28Z</time>
      </trkpt>
      <trkpt lat="50.01142" lon="2.19734">
        <ele>-357.47</ele>
        <time>2022-01-12T15:20:42Z</time>
      </trkpt>
      <trkpt lat="50.01123" lon="2.19722">
        <ele>-353.63</ele>
        <time>2022-01-12T15:20:54Z</time>
      </trkpt>
      <trkpt lat="50.01096" lon="2.19708">
        <ele>-342.57</ele>
        <time>2022-01-12T15:21:09Z</time>
      </trkpt>
      <trkpt lat="50.01074" lon="2.19699">
        <ele>-328.63</ele>
        <time>2022-01-12T15:21:22Z</time>
      </trkpt>
      <trkpt lat="50.0104" lon="2.19691">
        <ele>-306.04</ele>
        <time>2022-01-12T15:21:38Z</time>
      </trkpt>
      <trkpt lat="50.01026" lon="2.19686">
        <ele>-292.58</ele>
        <time>2022-01-12T15:21:48Z</time>
      </trkpt>
      <trkpt lat="50.00994" lon="2.19669">
        <ele>-266.15</ele>
        <time>2022-01-12T15:22:01Z</time>
      </trkpt>
      <trkpt lat="50.00966" lon="2.19653">
        <ele>-245</ele>
        <time>2022-01-12T15:22:15Z</time>
      </trkpt>
      <trkpt lat="50.00949" lon="2.19644">
        <ele>-234.91</ele>
        <time>2022-01-12T15:22:27Z</time>
      </trkpt>
      <trkpt lat="50.0093" lon="2.19635">
        <ele>-223.37</ele>
        <time>2022-01-12T15:22:38Z</time>
      </trkpt>
      <trkpt lat="50.00909" lon="2.1963">
        <ele>-211.35</ele>
        <time>2022-01-12T15:22:49Z</time>
      </trkpt>
      <trkpt lat="50.00885" lon="2.19624">
        <ele>-193.09</ele>
        <time>2022-01-12T15:23:02Z</time>
      </trkpt>
      <trkpt lat="50.00861" lon="2.19616">
        <ele>-175.3</ele>
        <time>2022-01-12T15:23:15Z</time>
      </trkpt>
      <trkpt lat="50.00822" lon="2.19597">
        <ele>-131.56</ele>
        <time>2022-01-12T15:23:28Z</time>
      </trkpt>
      <trkpt lat="50.00791" lon="2.19588">
        <ele>-102.72</ele>
        <time>2022-01-12T15:23:39Z</time>
      </trkpt>
      <trkpt lat="50.00762" lon="2.19576">
        <ele>-70.04</ele>
        <time>2022-01-12T15:23:52Z</time>
      </trkpt>
      <trkpt lat="50.00733" lon="2.19563">
        <ele>-40.24</ele>
        <time>2022-01-12T15:24:03Z</time>
      </trkpt>
      <trkpt lat="50.00697" lon="2.19549">
        <ele>-1.3</ele>
        <time>2022-01-12T15:24:16Z</time>
      </trkpt>
      <trkpt lat="50.00673" lon="2.19555">
        <ele>11.19</ele>
        <time>2022-01-12T15:24:28Z</time>
      </trkpt>
      <trkpt lat="50.00641" lon="2.19549">
        <ele>44.36</ele>
        <time>2022-01-12T15:24:42Z</time>
      </trkpt>
      <trkpt lat="50.00608" lon="2.19532">
        <ele>75.6</ele>
        <time>2022-01-12T15:24:58Z</time>
      </trkpt>
      <trkpt lat="50.00587" lon="2.19523">
        <ele>90.02</ele>
        <time>2022-01-12T15:25:12Z</time>
      </trkpt>
      <trkpt lat="50.00569" lon="2.19517">
        <ele>96.75</ele>
        <time>2022-01-12T15:25:26Z</time>
      </trkpt>
      <trkpt lat="50.00554" lon="2.19508">
        <ele>98.67</ele>
        <time>2022-01-12T15:25:39Z</time>
      </trkpt>
      <trkpt lat="50.00535" lon="2.19499">
        <ele>98.67</ele>
        <time>2022-01-12T15:25:54Z</time>
      </trkpt>
      <trkpt lat="50.00519" lon="2.19494">
        <ele>99.63</ele>
        <time>2022-01-12T15:26:07Z</time>
      </trkpt>
      <trkpt lat="50.00506" lon="2.19489">
        <ele>98.19</ele>
        <time>2022-01-12T15:26:18Z</time>
      </trkpt>
      <trkpt lat="50.00489" lon="2.19484">
        <ele>95.31</ele>
        <time>2022-01-12T15:26:34Z</time>
      </trkpt>
      <trkpt lat="50.00476" lon="2.19478">
        <ele>91.46</ele>
        <time>2022-01-12T15:26:46Z</time>
      </trkpt>
      <trkpt lat="50.00462" lon="2.19473">
        <ele>85.21</ele>
        <time>2022-01-12T15:27:00Z</time>
      </trkpt>
      <trkpt lat="50.00447" lon="2.19468">
        <ele>85.21</ele>
        <time>2022-01-12T15:27:11Z</time>
      </trkpt>
      <trkpt lat="50.00427" lon="2.19469">
        <ele>89.54</ele>
        <time>2022-01-12T15:27:23Z</time>
      </trkpt>
      <trkpt lat="50.00412" lon="2.19472">
        <ele>93.39</ele>
        <time>2022-01-12T15:27:34Z</time>
      </trkpt>
      <trkpt lat="50.004" lon="2.19471">
        <ele>94.35</ele>
        <time>2022-01-12T15:27:43Z</time>
      </trkpt>
      <trkpt lat="50.00397" lon="2.19458">
        <ele>96.27</ele>
        <time>2022-01-12T15:27:51Z</time>
      </trkpt>
      <trkpt lat="50.00399" lon="2.19434">
        <ele>96.75</ele>
        <time>2022-01-12T15:28:04Z</time>
      </trkpt>
      <trkpt lat="50.004" lon="2.19419">
        <ele>95.79</ele>
        <time>2022-01-12T15:28:12Z</time>
      </trkpt>
      <trkpt lat="50.00402" lon="2.19409">
        <ele>94.35</ele>
        <time>2022-01-12T15:28:18Z</time>
      </trkpt>
      <trkpt lat="50.00401" lon="2.19393">
        <ele>92.42</ele>
        <time>2022-01-12T15:28:26Z</time>
      </trkpt>
      <trkpt lat="50.00416" lon="2.19379">
        <ele>95.31</ele>
        <time>2022-01-12T15:28:41Z</time>
      </trkpt>
      <trkpt lat="50.00429" lon="2.19372">
        <ele>95.31</ele>
        <time>2022-01-12T15:28:53Z</time>
      </trkpt>
      <trkpt lat="50.00435" lon="2.19369">
        <ele>96.75</ele>
        <time>2022-01-12T15:28:59Z</time>
      </trkpt>
      <trkpt lat="50.00437" lon="2.19367">
        <ele>97.23</ele>
        <time>2022-01-12T15:29:01Z</time>
      </trkpt>
      <trkpt lat="50.00451" lon="2.19362">
        <ele>100.6</ele>
        <time>2022-01-12T15:29:13Z</time>
      </trkpt>
      <trkpt lat="50.00463" lon="2.19359">
        <ele>101.56</ele>
        <time>2022-01-12T15:29:22Z</time>
      </trkpt>
      <trkpt lat="50.00476" lon="2.19356">
        <ele>103.48</ele>
        <time>2022-01-12T15:29:34Z</time>
      </trkpt>
      <trkpt lat="50.00492" lon="2.19352">
        <ele>106.36</ele>
        <time>2022-01-12T15:29:48Z</time>
      </trkpt>
      <trkpt lat="50.00505" lon="2.1935">
        <ele>108.29</ele>
        <time>2022-01-12T15:30:00Z</time>
      </trkpt>
      <trkpt lat="50.00518" lon="2.19352">
        <ele>108.77</ele>
        <time>2022-01-12T15:30:12Z</time>
      </trkpt>
      <trkpt lat="50.00536" lon="2.19357">
        <ele>108.29</ele>
        <time>2022-01-12T15:30:24Z</time>
      </trkpt>
      <trkpt lat="50.00552" lon="2.19362">
        <ele>109.73</ele>
        <time>2022-01-12T15:30:38Z</time>
      </trkpt>
      <trkpt lat="50.00557" lon="2.19365">
        <ele>110.69</ele>
        <time>2022-01-12T15:30:50Z</time>
      </trkpt>
      <trkpt lat="50.00557" lon="2.19365">
        <ele>111.65</ele>
        <time>2022-01-12T15:31:06Z</time>
      </trkpt>
      <trkpt lat="50.00557" lon="2.19364">
        <ele>111.17</ele>
        <time>2022-01-12T15:31:28Z</time>
      </trkpt>
      <trkpt lat="50.00557" lon="2.19364">
        <ele>111.17</ele>
        <time>2022-01-12T15:31:47Z</time>
      </trkpt>
      <trkpt lat="50.00557" lon="2.19365">
        <ele>110.69</ele>
        <time>2022-01-12T15:32:02Z</time>
      </trkpt>
      <trkpt lat="50.00558" lon="2.19365">
        <ele>110.21</ele>
        <time>2022-01-12T15:32:11Z</time>
      </trkpt>
      <trkpt lat="50.00557" lon="2.19355">
        <ele>110.21</ele>
        <time>2022-01-12T15:32:18Z</time>
      </trkpt>
      <trkpt lat="50.00556" lon="2.19353">
        <ele>109.73</ele>
        <time>2022-01-12T15:32:20Z</time>
      </trkpt>
      <trkpt lat="50.00545" lon="2.19348">
        <ele>108.29</ele>
        <time>2022-01-12T15:32:32Z</time>
      </trkpt>
      <trkpt lat="50.00536" lon="2.19345">
        <ele>109.25</ele>
        <time>2022-01-12T15:32:40Z</time>
      </trkpt>
      <trkpt lat="50.00519" lon="2.19346">
        <ele>110.69</ele>
        <time>2022-01-12T15:32:54Z</time>
      </trkpt>
      <trkpt lat="50.00505" lon="2.19331">
        <ele>111.17</ele>
        <time>2022-01-12T15:33:07Z</time>
      </trkpt>
      <trkpt lat="50.00493" lon="2.19307">
        <ele>114.05</ele>
        <time>2022-01-12T15:33:22Z</time>
      </trkpt>
      <trkpt lat="50.00485" lon="2.19281">
        <ele>114.05</ele>
        <time>2022-01-12T15:33:36Z</time>
      </trkpt>
      <trkpt lat="50.00476" lon="2.19254">
        <ele>113.09</ele>
        <time>2022-01-12T15:33:51Z</time>
      </trkpt>
      <trkpt lat="50.00465" lon="2.19232">
        <ele>113.09</ele>
        <time>2022-01-12T15:34:05Z</time>
      </trkpt>
      <trkpt lat="50.00454" lon="2.19217">
        <ele>114.53</ele>
        <time>2022-01-12T15:34:17Z</time>
      </trkpt>
      <trkpt lat="50.00446" lon="2.19197">
        <ele>115.98</ele>
        <time>2022-01-12T15:34:30Z</time>
      </trkpt>
      <trkpt lat="50.00458" lon="2.19191">
        <ele>114.05</ele>
        <time>2022-01-12T15:34:41Z</time>
      </trkpt>
      <trkpt lat="50.00464" lon="2.19184">
        <ele>112.13</ele>
        <time>2022-01-12T15:34:54Z</time>
      </trkpt>
      <trkpt lat="50.00465" lon="2.19182">
        <ele>110.69</ele>
        <time>2022-01-12T15:35:09Z</time>
      </trkpt>
      <trkpt lat="50.00467" lon="2.19181">
        <ele>109.73</ele>
        <time>2022-01-12T15:35:27Z</time>
      </trkpt>
      <trkpt lat="50.00467" lon="2.19181">
        <ele>109.73</ele>
        <time>2022-01-12T15:35:41Z</time>
      </trkpt>
      <trkpt lat="50.00472" lon="2.19179">
        <ele>110.69</ele>
        <time>2022-01-12T15:35:50Z</time>
      </trkpt>
      <trkpt lat="50.00475" lon="2.19178">
        <ele>111.65</ele>
        <time>2022-01-12T15:36:01Z</time>
      </trkpt>
      <trkpt lat="50.00476" lon="2.19177">
        <ele>112.13</ele>
        <time>2022-01-12T15:36:19Z</time>
      </trkpt>
      <trkpt lat="50.00477" lon="2.19176">
        <ele>112.13</ele>
        <time>2022-01-12T15:36:34Z</time>
      </trkpt>
      <trkpt lat="50.00477" lon="2.19176">
        <ele>112.61</ele>
        <time>2022-01-12T15:36:51Z</time>
      </trkpt>
      <trkpt lat="50.00477" lon="2.19175">
        <ele>113.57</ele>
        <time>2022-01-12T15:37:13Z</time>
      </trkpt>
      <trkpt lat="50.00477" lon="2.19175">
        <ele>114.05</ele>
        <time>2022-01-12T15:37:28Z</time>
      </trkpt>
      <trkpt lat="50.00478" lon="2.19174">
        <ele>114.05</ele>
        <time>2022-01-12T15:37:47Z</time>
      </trkpt>
      <trkpt lat="50.0048" lon="2.1917">
        <ele>113.57</ele>
        <time>2022-01-12T15:38:00Z</time>
      </trkpt>
      <trkpt lat="50.00488" lon="2.19164">
        <ele>113.09</ele>
        <time>2022-01-12T15:38:11Z</time>
      </trkpt>
      <trkpt lat="50.00495" lon="2.19156">
        <ele>112.13</ele>
        <time>2022-01-12T15:38:22Z</time>
      </trkpt>
      <trkpt lat="50.00498" lon="2.19152">
        <ele>112.61</ele>
        <time>2022-01-12T15:38:27Z</time>
      </trkpt>
      <trkpt lat="50.00508" lon="2.1914">
        <ele>113.57</ele>
        <time>2022-01-12T15:38:41Z</time>
      </trkpt>
      <trkpt lat="50.00518" lon="2.19129">
        <ele>115.01</ele>
        <time>2022-01-12T15:38:55Z</time>
      </trkpt>
      <trkpt lat="50.00525" lon="2.19123">
        <ele>114.53</ele>
        <time>2022-01-12T15:39:06Z</time>
      </trkpt>
      <trkpt lat="50.00529" lon="2.19125">
        <ele>113.09</ele>
        <time>2022-01-12T15:39:18Z</time>
      </trkpt>
      <trkpt lat="50.00528" lon="2.19126">
        <ele>112.61</ele>
        <time>2022-01-12T15:39:29Z</time>
      </trkpt>
      <trkpt lat="50.00526" lon="2.19128">
        <ele>112.13</ele>
        <time>2022-01-12T15:39:50Z</time>
      </trkpt>
      <trkpt lat="50.00525" lon="2.1913">
        <ele>112.61</ele>
        <time>2022-01-12T15:40:08Z</time>
      </trkpt>
      <trkpt lat="50.00525" lon="2.19128">
        <ele>114.05</ele>
        <time>2022-01-12T15:40:36Z</time>
      </trkpt>
      <trkpt lat="50.00526" lon="2.19129">
        <ele>113.57</ele>
        <time>2022-01-12T15:40:55Z</time>
      </trkpt>
      <trkpt lat="50.00526" lon="2.19129">
        <ele>113.09</ele>
        <time>2022-01-12T15:41:14Z</time>
      </trkpt>
      <trkpt lat="50.00527" lon="2.1913">
        <ele>112.61</ele>
        <time>2022-01-12T15:41:40Z</time>
      </trkpt>
      <trkpt lat="50.00527" lon="2.1913">
        <ele>112.61</ele>
        <time>2022-01-12T15:42:03Z</time>
      </trkpt>
      <trkpt lat="50.00531" lon="2.19126">
        <ele>112.13</ele>
        <time>2022-01-12T15:42:16Z</time>
      </trkpt>
      <trkpt lat="50.00534" lon="2.19119">
        <ele>111.65</ele>
        <time>2022-01-12T15:42:27Z</time>
      </trkpt>
      <trkpt lat="50.00543" lon="2.19107">
        <ele>112.13</ele>
        <time>2022-01-12T15:42:39Z</time>
      </trkpt>
      <trkpt lat="50.00553" lon="2.19096">
        <ele>114.53</ele>
        <time>2022-01-12T15:42:52Z</time>
      </trkpt>
      <trkpt lat="50.00563" lon="2.19084">
        <ele>114.53</ele>
        <time>2022-01-12T15:43:05Z</time>
      </trkpt>
      <trkpt lat="50.00571" lon="2.19079">
        <ele>114.05</ele>
        <time>2022-01-12T15:43:14Z</time>
      </trkpt>
      <trkpt lat="50.00576" lon="2.19073">
        <ele>114.53</ele>
        <time>2022-01-12T15:43:20Z</time>
      </trkpt>
      <trkpt lat="50.00587" lon="2.19057">
        <ele>115.5</ele>
        <time>2022-01-12T15:43:34Z</time>
      </trkpt>
      <trkpt lat="50.00597" lon="2.19048">
        <ele>115.01</ele>
        <time>2022-01-12T15:43:45Z</time>
      </trkpt>
      <trkpt lat="50.00604" lon="2.19041">
        <ele>113.57</ele>
        <time>2022-01-12T15:43:53Z</time>
      </trkpt>
      <trkpt lat="50.00609" lon="2.19037">
        <ele>112.61</ele>
        <time>2022-01-12T15:43:57Z</time>
      </trkpt>
      <trkpt lat="50.00614" lon="2.19033">
        <ele>111.17</ele>
        <time>2022-01-12T15:44:02Z</time>
      </trkpt>
      <trkpt lat="50.00622" lon="2.19022">
        <ele>111.17</ele>
        <time>2022-01-12T15:44:11Z</time>
      </trkpt>
      <trkpt lat="50.00634" lon="2.19011">
        <ele>109.73</ele>
        <time>2022-01-12T15:44:23Z</time>
      </trkpt>
      <trkpt lat="50.00642" lon="2.19001">
        <ele>107.81</ele>
        <time>2022-01-12T15:44:35Z</time>
      </trkpt>
      <trkpt lat="50.00659" lon="2.19011">
        <ele>108.29</ele>
        <time>2022-01-12T15:44:51Z</time>
      </trkpt>
      <trkpt lat="50.00677" lon="2.19028">
        <ele>108.77</ele>
        <time>2022-01-12T15:45:08Z</time>
      </trkpt>
      <trkpt lat="50.00696" lon="2.19043">
        <ele>110.21</ele>
        <time>2022-01-12T15:45:24Z</time>
      </trkpt>
      <trkpt lat="50.00715" lon="2.19058">
        <ele>113.57</ele>
        <time>2022-01-12T15:45:40Z</time>
      </trkpt>
      <trkpt lat="50.0073" lon="2.19072">
        <ele>114.53</ele>
        <time>2022-01-12T15:45:54Z</time>
      </trkpt>
      <trkpt lat="50.00745" lon="2.19088">
        <ele>114.53</ele>
        <time>2022-01-12T15:46:07Z</time>
      </trkpt>
      <trkpt lat="50.00754" lon="2.19102">
        <ele>115.5</ele>
        <time>2022-01-12T15:46:17Z</time>
      </trkpt>
      <trkpt lat="50.00766" lon="2.19127">
        <ele>116.46</ele>
        <time>2022-01-12T15:46:32Z</time>
      </trkpt>
      <trkpt lat="50.00779" lon="2.19151">
        <ele>116.46</ele>
        <time>2022-01-12T15:46:48Z</time>
      </trkpt>
      <trkpt lat="50.00789" lon="2.19174">
        <ele>115.5</ele>
        <time>2022-01-12T15:47:02Z</time>
      </trkpt>
      <trkpt lat="50.00796" lon="2.19195">
        <ele>115.5</ele>
        <time>2022-01-12T15:47:15Z</time>
      </trkpt>
      <trkpt lat="50.00807" lon="2.19217">
        <ele>115.01</ele>
        <time>2022-01-12T15:47:29Z</time>
      </trkpt>
      <trkpt lat="50.00816" lon="2.19236">
        <ele>114.05</ele>
        <time>2022-01-12T15:47:41Z</time>
      </trkpt>
      <trkpt lat="50.00829" lon="2.19252">
        <ele>115.5</ele>
        <time>2022-01-12T15:47:53Z</time>
      </trkpt>
      <trkpt lat="50.00842" lon="2.19272">
        <ele>117.42</ele>
        <time>2022-01-12T15:48:06Z</time>
      </trkpt>
      <trkpt lat="50.00853" lon="2.19289">
        <ele>117.9</ele>
        <time>2022-01-12T15:48:18Z</time>
      </trkpt>
      <trkpt lat="50.00863" lon="2.19306">
        <ele>117.42</ele>
        <time>2022-01-12T15:48:30Z</time>
      </trkpt>
      <trkpt lat="50.00873" lon="2.19324">
        <ele>117.9</ele>
        <time>2022-01-12T15:48:43Z</time>
      </trkpt>
      <trkpt lat="50.00886" lon="2.19344">
        <ele>118.38</ele>
        <time>2022-01-12T15:48:58Z</time>
      </trkpt>
      <trkpt lat="50.00896" lon="2.19365">
        <ele>119.34</ele>
        <time>2022-01-12T15:49:11Z</time>
      </trkpt>
      <trkpt lat="50.00909" lon="2.19379">
        <ele>120.3</ele>
        <time>2022-01-12T15:49:25Z</time>
      </trkpt>
      <trkpt lat="50.00927" lon="2.19391">
        <ele>120.3</ele>
        <time>2022-01-12T15:49:40Z</time>
      </trkpt>
      <trkpt lat="50.00941" lon="2.19401">
        <ele>120.3</ele>
        <time>2022-01-12T15:49:52Z</time>
      </trkpt>
      <trkpt lat="50.00954" lon="2.1941">
        <ele>118.86</ele>
        <time>2022-01-12T15:50:04Z</time>
      </trkpt>
      <trkpt lat="50.00968" lon="2.19418">
        <ele>117.42</ele>
        <time>2022-01-12T15:50:16Z</time>
      </trkpt>
      <trkpt lat="50.00983" lon="2.19426">
        <ele>116.46</ele>
        <time>2022-01-12T15:50:28Z</time>
      </trkpt>
      <trkpt lat="50.00996" lon="2.19434">
        <ele>115.5</ele>
        <time>2022-01-12T15:50:40Z</time>
      </trkpt>
      <trkpt lat="50.01011" lon="2.19444">
        <ele>113.57</ele>
        <time>2022-01-12T15:50:53Z</time>
      </trkpt>
      <trkpt lat="50.01032" lon="2.19461">
        <ele>114.53</ele>
        <time>2022-01-12T15:51:09Z</time>
      </trkpt>
      <trkpt lat="50.01049" lon="2.19475">
        <ele>115.5</ele>
        <time>2022-01-12T15:51:24Z</time>
      </trkpt>
      <trkpt lat="50.01066" lon="2.19488">
        <ele>115.5</ele>
        <time>2022-01-12T15:51:38Z</time>
      </trkpt>
      <trkpt lat="50.01082" lon="2.19494">
        <ele>115.5</ele>
        <time>2022-01-12T15:51:50Z</time>
      </trkpt>
      <trkpt lat="50.01097" lon="2.19502">
        <ele>115.98</ele>
        <time>2022-01-12T15:52:03Z</time>
      </trkpt>
      <trkpt lat="50.01111" lon="2.19508">
        <ele>114.53</ele>
        <time>2022-01-12T15:52:15Z</time>
      </trkpt>
      <trkpt lat="50.01125" lon="2.19512">
        <ele>114.05</ele>
        <time>2022-01-12T15:52:27Z</time>
      </trkpt>
      <trkpt lat="50.01141" lon="2.19511">
        <ele>115.01</ele>
        <time>2022-01-12T15:52:39Z</time>
      </trkpt>
      <trkpt lat="50.01156" lon="2.19505">
        <ele>115.5</ele>
        <time>2022-01-12T15:52:50Z</time>
      </trkpt>
      <trkpt lat="50.01165" lon="2.19501">
        <ele>116.94</ele>
        <time>2022-01-12T15:52:56Z</time>
      </trkpt>
      <trkpt lat="50.01177" lon="2.19496">
        <ele>116.94</ele>
        <time>2022-01-12T15:53:06Z</time>
      </trkpt>
      <trkpt lat="50.01178" lon="2.19496">
        <ele>116.94</ele>
        <time>2022-01-12T15:53:07Z</time>
      </trkpt>
      <trkpt lat="50.01195" lon="2.1949">
        <ele>118.86</ele>
        <time>2022-01-12T15:53:20Z</time>
      </trkpt>
      <trkpt lat="50.01211" lon="2.19489">
        <ele>119.82</ele>
        <time>2022-01-12T15:53:32Z</time>
      </trkpt>
      <trkpt lat="50.01229" lon="2.19497">
        <ele>119.34</ele>
        <time>2022-01-12T15:53:47Z</time>
      </trkpt>
      <trkpt lat="50.01236" lon="2.19509">
        <ele>119.82</ele>
        <time>2022-01-12T15:54:00Z</time>
      </trkpt>
      <trkpt lat="50.01233" lon="2.19512">
        <ele>119.34</ele>
        <time>2022-01-12T15:54:03Z</time>
      </trkpt>
      <trkpt lat="50.01221" lon="2.19525">
        <ele>117.9</ele>
        <time>2022-01-12T15:54:15Z</time>
      </trkpt>
      <trkpt lat="50.01204" lon="2.19532">
        <ele>119.34</ele>
        <time>2022-01-12T15:54:30Z</time>
      </trkpt>
      <trkpt lat="50.01192" lon="2.19542">
        <ele>119.34</ele>
        <time>2022-01-12T15:54:43Z</time>
      </trkpt>
      <trkpt lat="50.01192" lon="2.19547">
        <ele>119.34</ele>
        <time>2022-01-12T15:54:46Z</time>
      </trkpt>
      <trkpt lat="50.01192" lon="2.19571">
        <ele>119.34</ele>
        <time>2022-01-12T15:55:00Z</time>
      </trkpt>
      <trkpt lat="50.01192" lon="2.19572">
        <ele>119.34</ele>
        <time>2022-01-12T15:55:02Z</time>
      </trkpt>
      <trkpt lat="50.01198" lon="2.19583">
        <ele>118.86</ele>
        <time>2022-01-12T15:55:13Z</time>
      </trkpt>
      <trkpt lat="50.012" lon="2.19585">
        <ele>119.34</ele>
        <time>2022-01-12T15:55:16Z</time>
      </trkpt>
      <trkpt lat="50.01203" lon="2.19587">
        <ele>119.82</ele>
        <time>2022-01-12T15:55:19Z</time>
      </trkpt>
      <trkpt lat="50.01227" lon="2.19578">
        <ele>133.28</ele>
        <time>2022-01-12T15:56:11Z</time>
      </trkpt>
      <trkpt lat="50.01233" lon="2.19582">
        <ele>141.93</ele>
        <time>2022-01-12T15:56:24Z</time>
      </trkpt>
      <trkpt lat="50.0123" lon="2.19585">
        <ele>139.05</ele>
        <time>2022-01-12T15:56:36Z</time>
      </trkpt>
      <trkpt lat="50.01226" lon="2.19586">
        <ele>134.72</ele>
        <time>2022-01-12T15:56:56Z</time>
      </trkpt>
      <trkpt lat="50.01217" lon="2.19589">
        <ele>131.84</ele>
        <time>2022-01-12T15:57:09Z</time>
      </trkpt>
      <trkpt lat="50.01203" lon="2.19597">
        <ele>132.32</ele>
        <time>2022-01-12T15:57:29Z</time>
      </trkpt>
      <trkpt lat="50.01206" lon="2.19599">
        <ele>129.92</ele>
        <time>2022-01-12T15:57:53Z</time>
      </trkpt>
      <trkpt lat="50.01207" lon="2.19596">
        <ele>130.88</ele>
        <time>2022-01-12T15:58:15Z</time>
      </trkpt>
      <trkpt lat="50.01206" lon="2.19595">
        <ele>130.4</ele>
        <time>2022-01-12T15:58:28Z</time>
      </trkpt>
      <trkpt lat="50.01218" lon="2.19592">
        <ele>129.92</ele>
        <time>2022-01-12T15:58:35Z</time>
      </trkpt>
      <trkpt lat="50.01214" lon="2.19606">
        <ele>129.43</ele>
        <time>2022-01-12T15:58:41Z</time>
      </trkpt>
      <trkpt lat="50.01196" lon="2.19609">
        <ele>129.43</ele>
        <time>2022-01-12T15:58:54Z</time>
      </trkpt>
      <trkpt lat="50.01195" lon="2.19609">
        <ele>129.43</ele>
        <time>2022-01-12T15:58:55Z</time>
      </trkpt>
      <trkpt lat="50.0119" lon="2.19623">
        <ele>128.95</ele>
        <time>2022-01-12T15:58:59Z</time>
      </trkpt>
      <trkpt lat="50.01193" lon="2.19676">
        <ele>128.47</ele>
        <time>2022-01-12T15:59:08Z</time>
      </trkpt>
      <trkpt lat="50.01194" lon="2.19676">
        <ele>128.47</ele>
        <time>2022-01-12T15:59:19Z</time>
      </trkpt>
      <trkpt lat="50.01194" lon="2.19676">
        <ele>128.47</ele>
        <time>2022-01-12T15:59:27Z</time>
      </trkpt>
      <trkpt lat="50.01209" lon="2.19691">
        <ele>128.47</ele>
        <time>2022-01-12T15:59:33Z</time>
      </trkpt>
      <trkpt lat="50.01279" lon="2.19706">
        <ele>128.95</ele>
        <time>2022-01-12T15:59:42Z</time>
      </trkpt>
      <trkpt lat="50.01331" lon="2.19708">
        <ele>129.43</ele>
        <time>2022-01-12T15:59:49Z</time>
      </trkpt>
    </trkseg>
  </trk>
</gpx>